Date StartTime U_cm/s V_cm/s W_cm/s Ustd_cm/s Vstd_cm/s Wstd_cm/s Uvar_(cm/s)^2 Vvar_(cm/s)^2 Wvar_(cm/s)^2 KE_(m/s)^2 TurbulentKE_(m/s)^2 HorizWindSpeed_cm/s FrictionSpeec_cm/s DragCoef SpeedOfSound_m/s SonicTemperature_C Pressure_mb 
01/22/2014  13:53:00        9.845       74.859       64.119       40.080       35.954       32.947     1606.416     1292.712     1085.487        0.690        0.199       75.503       23.140        0.094      338.953       11.954      862.497
01/22/2014  13:54:00       21.866       49.143       46.614       28.965       34.517       20.739      838.954     1191.415      430.107        0.376        0.123       53.788       12.164        0.051      339.086       12.178      862.494
01/22/2014  13:55:00       15.536       31.714       36.949       59.297       51.702       38.632     3516.138     2673.125     1492.420        0.515        0.384       35.315       24.394        0.477      339.095       12.193      862.496
01/22/2014  13:56:00       23.174       36.596       20.742       52.543       52.407       18.106     2760.814     2746.452      327.815        0.407        0.292       43.316       20.562        0.225      338.827       11.743      862.515
01/22/2014  13:57:00       35.485       58.153       59.029       35.667       35.781       29.679     1272.151     1280.254      880.834        0.578        0.172       68.124       22.543        0.109      339.018       12.064      862.517
01/22/2014  13:58:00      104.443       44.357       24.280       65.642       45.244       44.961     4308.833     2047.005     2021.481        1.092        0.419      113.472       14.097        0.015      338.881       11.833      862.532
01/22/2014  13:59:00       48.505       46.925       26.289       50.573       48.486       36.964     2557.639     2350.937     1366.304        0.576        0.314       67.489       30.014        0.198      338.952       11.953      862.531
01/22/2014  14:00:00       56.180      105.911       94.848       64.059       52.671       51.100     4103.589     2774.274     2611.242        1.643        0.474      119.889       46.688        0.152      338.902       11.868      862.515
01/22/2014  14:01:00       56.570       63.921        9.924       36.644       31.516       32.821     1342.766      993.288     1077.202        0.540        0.171       85.359       19.661        0.053      338.710       11.546      862.510
01/22/2014  14:02:00       77.270       51.950       68.386       60.419       70.797       56.198     3650.443     5012.240     3158.193        1.258        0.591       93.110       53.333        0.328      338.869       11.814      862.491
01/22/2014  14:03:00      108.700      -33.493       41.728       76.724       95.577       51.996     5886.502     9135.013     2703.581        1.620        0.886      113.743       67.743        0.355      338.921       11.901      862.479
01/22/2014  14:04:00       70.533      -66.086       19.002       70.541       69.783       46.521     4976.044     4869.730     2164.192        1.085        0.600       96.655       60.641        0.394      338.931       11.918      862.456
01/22/2014  14:05:00       80.186       70.281       64.505       60.990       33.276       39.387     3719.811     1107.318     1551.358        1.095        0.319      106.626       16.746        0.025      339.020       12.067      862.443
01/22/2014  14:06:00       46.572      -36.650       31.697       64.667       88.235       54.653     4181.768     7785.498     2986.972        0.973        0.748       59.264       63.172        1.136      339.139       12.268      862.431
01/22/2014  14:07:00       64.694      -15.875       30.136       59.712       78.721       50.526     3565.514     6196.995     2552.843        0.883        0.616       66.613       51.760        0.604      339.056       12.129      862.413
01/22/2014  14:08:00       61.099       22.342       19.242       29.859       28.276       34.337      891.577      799.514     1179.030        0.374        0.144       65.056       19.361        0.089      338.783       11.669      862.415
01/22/2014  14:09:00       33.098      -31.999        5.203       33.976       29.751       23.450     1154.336      885.151      549.888        0.237        0.129       46.037       19.660        0.182      338.933       11.922      862.407
01/22/2014  14:10:00       32.234      -21.203        4.096       33.337       22.251       22.600     1111.352      495.128      510.773        0.181        0.106       38.582       13.242        0.118      338.953       11.956      862.400
01/22/2014  14:11:00       17.464      -76.109       13.935       38.668       49.959       36.525     1495.180     2495.882     1334.051        0.581        0.266       78.087       27.654        0.125      339.158       12.299      862.372
01/22/2014  14:12:00       81.198     -103.744       -2.005       64.623      121.627       41.615     4176.105    14793.153     1731.824        1.903        1.035      131.741       58.529        0.197      339.139       12.265      862.352
01/22/2014  14:13:00      112.407     -100.464      -12.738       65.166       64.297       43.508     4246.656     4134.074     1892.931        1.658        0.514      150.760       44.827        0.088      338.851       11.782      862.359
01/22/2014  14:14:00       99.441     -114.532      -11.169       53.089       54.179       44.357     2818.391     2935.327     1967.533        1.542        0.386      151.677       29.171        0.037      339.047       12.111      862.359
01/22/2014  14:15:00       85.582      -57.978        2.500       70.281       96.372       60.235     4939.371     9287.478     3628.293        1.427        0.893      103.372       68.882        0.444      338.933       11.923      862.354
01/22/2014  14:16:00       78.120      -88.994        1.320       67.182       91.676       71.527     4513.450     8404.492     5116.156        1.603        0.902      118.417       78.210        0.436      338.911       11.882      862.352
01/22/2014  14:17:00       78.083      -98.199      -36.592       46.320       68.809       35.154     2145.569     4734.633     1235.835        1.260        0.406      125.459       28.580        0.052      338.852       11.785      862.356
01/22/2014  14:18:00       68.428      -81.947       -5.783       47.839       44.709       40.877     2288.615     1998.888     1670.915        0.869        0.298      106.760       28.632        0.072      338.890       11.849      862.353
01/22/2014  14:19:00      -19.038      -19.826       12.827       40.828       37.308       18.105     1666.947     1391.857      327.775        0.215        0.169       27.487       11.797        0.184      339.265       12.480      862.335
01/22/2014  14:20:00       27.663      -16.852        1.748       33.774       36.736       19.724     1140.681     1349.553      389.038        0.197        0.144       32.392       16.479        0.259      339.270       12.489      862.311
01/22/2014  14:21:00       33.915      -31.998       28.684       42.362       73.113       40.296     1794.554     5345.533     1623.784        0.588        0.438       46.627       47.403        1.034      339.269       12.486      862.294
01/22/2014  14:22:00       63.692       22.447       70.108       86.370       93.439       54.361     7459.741     8730.776     2955.069        1.431        0.957       67.531       65.846        0.951      339.195       12.363      862.276
01/22/2014  14:23:00       39.471        8.732       49.451       46.479       57.963       44.329     2160.259     3359.699     1965.033        0.578        0.374       40.425       41.245        1.041      339.270       12.488      862.259
01/22/2014  14:24:00       -4.207      -26.215       16.331       33.210       62.696       42.894     1102.930     3930.819     1839.874        0.392        0.344       26.550       33.419        1.584      339.376       12.667      862.256
01/22/2014  14:25:00       53.701      -22.908       14.281       30.911       36.895       28.761      955.482     1361.234      827.191        0.338        0.157       58.383       25.711        0.194      339.167       12.315      862.262
01/22/2014  14:26:00       36.472      -39.499        3.714       33.640       33.191       24.745     1131.677     1101.623      612.321        0.287        0.142       53.762       24.594        0.209      339.265       12.481      862.263
01/22/2014  14:27:00       76.051      -97.961       -7.929       57.276       74.279       37.721     3280.518     5517.351     1422.850        1.283        0.511      124.017       39.908        0.104      339.017       12.062      862.254
01/22/2014  14:28:00       15.751      -57.693        8.153       31.512       46.911       31.646      993.012     2200.634     1001.463        0.392        0.210       59.805       20.338        0.116      339.224       12.411      862.259
01/22/2014  14:29:00       20.621      -45.982       16.033       29.432       23.021       28.418      866.231      529.987      807.610        0.250        0.110       50.394       14.202        0.079      339.249       12.454      862.257
01/22/2014  14:30:00       25.951        3.028       14.400       43.897       31.535       24.966     1926.937      994.478      623.288        0.222        0.177       26.127       23.985        0.843      339.419       12.739      862.244
01/22/2014  14:31:00      -19.909      -17.658        9.631       32.442       46.580       31.084     1052.456     2169.728      966.224        0.249        0.209       26.611       28.325        1.133      339.525       12.918      862.234
01/22/2014  14:32:00       -8.632     -101.779      -24.582       30.592       46.501       21.253      935.889     2162.326      451.709        0.729        0.177      102.144       13.272        0.017      339.318       12.570      862.221
01/22/2014  14:33:00      -48.684       -7.034        1.567       28.874       32.790       19.902      833.732     1075.203      396.084        0.236        0.115       49.189       14.091        0.082      339.445       12.783      862.228
01/22/2014  14:34:00      -41.052        7.368        4.558       40.109       31.623       22.788     1608.755     1000.031      519.283        0.244        0.156       41.708       17.956        0.185      339.487       12.854      862.220
01/22/2014  14:35:00      -19.064      -13.010        8.243       30.085       18.611       15.706      905.087      346.355      246.666        0.105        0.075       23.080        9.623        0.174      339.510       12.892      862.224
01/22/2014  14:36:00       33.145       15.533       12.229       19.959       27.939       22.648      398.372      780.573      512.950        0.159        0.085       36.604       12.289        0.113      339.270       12.489      862.220
01/22/2014  14:37:00       38.909       72.852       60.441       46.303       33.389       41.451     2143.978     1114.831     1718.182        0.772        0.249       82.592       35.305        0.183      339.295       12.530      862.213
01/22/2014  14:38:00       77.848       68.700       42.181       44.508       31.716       33.954     1980.992     1005.884     1152.893        0.835        0.207      103.827       24.392        0.055      339.260       12.471      862.197
01/22/2014  14:39:00       63.102       53.006       45.978       35.203       30.747       24.430     1239.221      945.365      596.812        0.584        0.139       82.410       16.894        0.042      339.381       12.675      862.195
01/22/2014  14:40:00       -1.106      -15.578       29.900       25.718       52.125       28.325      661.402     2717.049      802.322        0.266        0.209       15.617       19.114        1.498      339.720       13.246      862.187
01/22/2014  14:41:00       85.038     -119.367       -5.413       41.350       78.640       42.746     1709.832     6184.184     1827.259        1.561        0.486      146.561       49.643        0.115      339.195       12.362      862.175
01/22/2014  14:42:00       75.758      -47.656        5.769       46.443       47.152       28.281     2156.933     2223.288      799.840        0.661        0.259       89.501       35.414        0.157      339.231       12.423      862.171
01/22/2014  14:43:00       18.196      -42.334       16.831       29.578       55.279       28.748      874.868     3055.750      826.422        0.358        0.238       46.079       22.599        0.241      339.526       12.918      862.159
01/22/2014  14:44:00       42.677      -43.923       10.409       33.484       59.322       32.781     1121.169     3519.041     1074.585        0.479        0.286       61.242       36.576        0.357      339.502       12.880      862.147
01/22/2014  14:45:00       21.014       14.966       39.226       33.012       33.988       19.624     1089.791     1155.181      385.099        0.242        0.132       25.799       23.611        0.838      339.633       13.101      862.127
01/22/2014  14:46:00       43.131      -21.051       18.980       29.238       43.164       32.104      854.879     1863.129     1030.687        0.321        0.187       47.994       37.234        0.602      339.321       12.574      862.119
01/22/2014  14:47:00       25.386        4.616       -8.837       20.581       40.270       16.748      423.571     1621.667      280.498        0.153        0.116       25.802       11.677        0.205      339.277       12.500      862.110
01/22/2014  14:48:00       19.518       10.815       26.868       20.090       22.050       12.856      403.623      486.210      165.276        0.114        0.053       22.314        9.644        0.187      339.543       12.949      862.107
01/22/2014  14:49:00        4.863        8.760        8.500       18.146       15.481       13.859      329.278      239.655      192.066        0.047        0.038       10.019        8.686        0.752      339.835       13.440      862.108
01/22/2014  14:50:00       25.014      -55.848        2.091       32.545       52.185       26.541     1059.146     2723.278      704.450        0.412        0.224       61.194       28.422        0.216      339.668       13.158      862.102
01/22/2014  14:51:00       78.738       38.226       40.365       53.980       37.988       39.300     2913.792     1443.115     1544.514        0.759        0.295       87.527       21.880        0.062      339.310       12.556      862.091
01/22/2014  14:52:00       61.640       23.231        8.147       25.827       21.922       21.859      667.012      480.572      477.827        0.302        0.081       65.872       10.540        0.026      339.312       12.559      862.087
01/22/2014  14:53:00       86.936       33.591       14.477       42.558       35.903       27.265     1811.216     1288.992      743.381        0.637        0.192       93.200       10.792        0.013      339.518       12.906      862.081
01/22/2014  14:54:00      121.930       80.415       20.822       27.291       28.795       25.322      744.799      829.149      641.221        1.199        0.111      146.060       19.023        0.017      339.240       12.437      862.085
01/22/2014  14:55:00      109.154       63.172       13.141       22.124       26.649       24.907      489.481      710.176      620.354        0.895        0.091      126.116       17.994        0.020      339.250       12.454      862.079
01/22/2014  14:56:00       24.588       41.738        7.209       36.174       25.719       24.015     1308.573      661.480      576.742        0.247        0.127       48.442       22.185        0.210      339.480       12.842      862.069
01/22/2014  14:57:00       31.072       30.106       27.246       39.051       28.326       32.967     1524.967      802.370     1086.836        0.301        0.171       43.265       19.541        0.204      339.613       13.067      862.059
01/22/2014  14:58:00      142.461       68.547       18.833       58.406       40.020       29.742     3411.242     1601.618      884.601        1.562        0.295      158.094        5.293        0.001      339.383       12.678      862.047
01/22/2014  14:59:00       94.819       28.776       -0.651       47.598       58.897       20.919     2265.590     3468.905      437.624        0.799        0.309       99.089       26.623        0.072      339.299       12.537      862.047
01/22/2014  15:00:00        9.445       22.156       56.387       32.776       63.643       37.164     1074.296     4050.406     1381.142        0.513        0.325       24.085       41.090        2.910      339.675       13.171      862.007
01/22/2014  15:01:00      102.587       88.008       24.876       48.498       42.070       34.868     2352.102     1769.888     1215.791        1.211        0.267      135.165       14.313        0.011      339.406       12.718      862.006
01/22/2014  15:02:00       78.235       73.263       65.607       56.865       44.758       41.887     3233.576     2003.300     1754.536        1.139        0.350      107.183       21.478        0.040      339.519       12.907      862.008
01/22/2014  15:03:00      118.080       52.643       34.531       55.042       49.279       39.889     3029.623     2428.382     1591.140        1.248        0.352      129.283       26.808        0.043      339.351       12.625      862.006
01/22/2014  15:04:00       52.868       27.106        5.266       48.397       35.988       24.444     2342.315     1295.131      597.489        0.390        0.212       59.412       12.619        0.045      339.455       12.801      861.997
01/22/2014  15:05:00       43.940       47.053       -4.551       40.600       29.453       28.009     1648.378      867.457      784.495        0.373        0.165       64.380       16.369        0.065      339.343       12.610      861.992
01/22/2014  15:06:00       60.004       40.269        9.753       54.091       28.654       22.645     2925.815      821.046      512.786        0.479        0.213       72.264       18.514        0.066      339.450       12.791      861.978
01/22/2014  15:07:00       77.972       57.897        3.176       41.954       28.690       17.161     1760.164      823.130      294.500        0.616        0.144       97.117        9.029        0.009      339.433       12.762      861.967
01/22/2014  15:08:00       38.588       32.474       18.829       35.662       27.232       17.809     1271.780      741.568      317.163        0.261        0.117       50.434        8.526        0.029      339.602       13.049      861.957
01/22/2014  15:09:00       48.024       30.117       15.523       37.281       34.638       24.512     1389.871     1199.809      600.838        0.332        0.160       56.687       21.318        0.141      339.505       12.884      861.958
01/22/2014  15:10:00       53.157       41.213       17.946       32.654       15.926       24.191     1066.252      253.634      585.188        0.338        0.095       67.262       12.124        0.032      339.380       12.673      861.949
01/22/2014  15:11:00       81.639       48.039       13.249       38.735       29.011       19.525     1500.413      841.653      381.224        0.594        0.136       94.724       17.874        0.036      339.417       12.734      861.945
01/22/2014  15:12:00       27.444        4.392        7.908       34.388       23.171       19.506     1182.538      536.874      380.497        0.147        0.105       27.793       14.539        0.274      339.649       13.128      861.947
01/22/2014  15:13:00       42.359       36.566       18.483       21.890       24.165       26.332      479.175      583.951      693.352        0.261        0.088       55.959        8.192        0.021      339.530       12.927      861.939
01/22/2014  15:14:00        7.608       11.747        6.650       12.511       16.891       18.908      156.521      285.310      357.525        0.052        0.040       13.996       14.358        1.053      339.748       13.293      861.939
01/22/2014  15:15:00       22.668       53.220       -8.635       24.022       31.938       18.668      577.059     1020.037      348.504        0.268        0.097       57.846       16.735        0.084      339.444       12.782      861.924
01/22/2014  15:16:00      -20.091       42.158      -17.979       39.193       18.705       19.022     1536.113      349.883      361.843        0.238        0.112       46.701       17.283        0.137      339.510       12.893      861.893
01/22/2014  15:17:00       23.515       34.134       42.793       40.254       46.901       35.310     1620.357     2199.708     1246.776        0.431        0.253       41.450       33.674        0.660      339.730       13.264      861.877
01/22/2014  15:18:00       27.640       91.648       90.439       44.359       41.022       37.581     1967.700     1682.844     1412.353        1.120        0.253       95.725       33.623        0.123      339.613       13.065      861.872
01/22/2014  15:19:00       61.172       70.896       63.739       25.264       29.858       26.885      638.290      891.476      722.780        0.754        0.113       93.639       22.804        0.059      339.487       12.854      861.881
01/22/2014  15:20:00       61.332       -7.158       -1.072       23.566       22.203       23.157      555.333      492.964      536.254        0.270        0.079       61.748       10.791        0.031      339.516       12.904      861.891
01/22/2014  15:21:00       53.220       33.324       14.092       22.735       15.249       22.214      516.880      232.517      493.471        0.269        0.062       62.792        7.139        0.013      339.607       13.055      861.894
01/22/2014  15:22:00        0.757       14.138        6.130       21.070       13.593       19.278      443.957      184.780      371.640        0.062        0.050       14.158       13.948        0.971      339.887       13.530      861.898
01/22/2014  15:23:00       -0.338       31.008       32.319       13.134       16.615       21.270      172.496      276.044      452.422        0.145        0.045       31.009        5.965        0.037      339.784       13.354      861.900
01/22/2014  15:24:00       20.660       38.117       15.367       30.146       21.263       25.571      908.761      452.103      653.901        0.206        0.101       43.356       15.393        0.126      339.723       13.251      861.905
01/22/2014  15:25:00       43.789       37.030       24.577       49.659       25.825       26.733     2465.970      666.910      714.641        0.387        0.192       57.347       21.127        0.136      339.788       13.361      861.901
01/22/2014  15:26:00       82.260       65.135       12.438       28.667       25.043       25.756      821.822      627.144      663.357        0.664        0.106      104.925       14.998        0.020      339.552       12.963      861.902
01/22/2014  15:27:00       46.139       35.654        6.300       56.666       37.644       25.496     3211.035     1417.070      650.047        0.436        0.264       58.309       23.734        0.166      339.640       13.112      861.894
01/22/2014  15:28:00      107.186       73.309       10.298       32.073       34.096       22.165     1028.680     1162.551      491.309        0.983        0.134      129.858       13.232        0.010      339.540       12.943      861.887
01/22/2014  15:29:00       25.957       -7.157        0.028       18.820       27.828       16.704      354.200      774.371      279.028        0.107        0.070       26.925       10.344        0.148      339.779       13.345      861.884
01/22/2014  15:30:00       22.147      -43.626       -4.940       20.565       22.173       18.047      422.936      491.652      325.711        0.183        0.062       48.926       10.411        0.045      339.820       13.416      861.889
01/22/2014  15:31:00        4.152       -1.325        5.337       25.803       43.422       20.105      665.784     1885.494      404.229        0.150        0.148        4.358       22.609       26.917      339.986       13.696      861.897
01/22/2014  15:32:00       21.900      -15.509        5.360       22.948       24.925       17.533      526.589      621.239      307.414        0.110        0.073       26.836       12.186        0.206      339.873       13.505      861.904
01/22/2014  15:33:00       47.879      -64.073        1.207       44.480       55.457       25.898     1978.491     3075.426      670.698        0.606        0.286       79.986       33.533        0.176      339.801       13.385      861.910
01/22/2014  15:34:00        8.388      -65.358       -3.471       34.849       36.115       30.357     1214.448     1304.308      921.522        0.390        0.172       65.894       13.492        0.042      339.903       13.555      861.918
01/22/2014  15:35:00       36.297      -16.304       19.292       32.571       48.459       20.714     1060.884     2348.247      429.080        0.290        0.192       39.791       24.973        0.394      339.841       13.451      861.933
01/22/2014  15:36:00       44.506       63.518       12.866       26.520       31.199       29.980      703.336      973.354      898.819        0.438        0.129       77.559       10.084        0.017      339.749       13.295      861.938
01/22/2014  15:37:00       27.597      -62.702       -0.843       30.722       43.295       32.248      943.862     1874.484     1039.941        0.428        0.193       68.507       30.421        0.197      339.960       13.651      861.938
01/22/2014  15:38:00       40.619      -34.457        5.951       24.202       51.423       24.126      585.726     2644.337      582.071        0.334        0.191       53.265       18.877        0.126      339.857       13.478      861.941
01/22/2014  15:39:00       31.589       61.559       58.844       32.226       32.831       30.831     1038.503     1077.877      950.550        0.566        0.153       69.191       24.667        0.127      339.734       13.270      861.948
01/22/2014  15:40:00       58.510       43.529       45.171       62.114       43.113       34.169     3858.097     1858.712     1167.494        0.712        0.344       72.926       33.024        0.205      339.758       13.311      861.949
01/22/2014  15:41:00      106.907       58.057       18.630       39.231       36.238       36.126     1539.079     1313.193     1305.089        0.965        0.208      121.654       27.280        0.050      339.638       13.108      861.948
01/22/2014  15:42:00       72.680       31.838       16.472       28.568       26.793       21.590      816.124      717.879      466.136        0.428        0.100       79.348       13.091        0.027      339.674       13.170      861.948
01/22/2014  15:43:00       48.963       16.945       13.795       31.081       27.559       17.024      966.041      759.504      289.806        0.244        0.101       51.813        9.925        0.037      339.728       13.261      861.939
01/22/2014  15:44:00       35.336        8.123       20.054       26.285       22.478       20.068      690.884      505.261      402.720        0.166        0.080       36.258       14.837        0.167      339.774       13.339      861.926
01/22/2014  15:45:00       14.853       47.148       -8.718        9.491       14.545        8.679       90.086      211.566       75.327        0.145        0.019       49.432        9.110        0.034      339.676       13.172      861.913
01/22/2014  15:46:00       23.361       34.955       -8.171       14.229       14.753       11.761      202.452      217.662      138.329        0.120        0.028       42.043        9.776        0.054      339.702       13.217      861.902
01/22/2014  15:47:00       18.436       38.817        7.039       18.898       13.346       15.714      357.129      178.125      246.927        0.134        0.039       42.973       13.030        0.092      339.756       13.307      861.896
01/22/2014  15:48:00       21.796       39.217       -2.269       16.621       18.301       11.922      276.262      334.930      142.133        0.139        0.038       44.866        5.539        0.015      339.747       13.293      861.888
01/22/2014  15:49:00       18.312       19.949       -0.886       16.622       15.649        8.155      276.274      244.889       66.511        0.066        0.029       27.080        8.460        0.098      339.759       13.313      861.894
01/22/2014  15:50:00       23.247       20.800        7.407       12.213       12.988        9.655      149.150      168.688       93.225        0.072        0.021       31.194        7.316        0.055      339.752       13.301      861.902
01/22/2014  15:51:00       10.872       14.906       15.796       14.393       12.229        8.826      207.147      149.547       77.906        0.051        0.022       18.450        5.858        0.101      339.847       13.462      861.907
01/22/2014  15:52:00        3.332       -9.816       12.288       10.820       17.199        9.846      117.078      295.814       96.946        0.038        0.025       10.366        7.417        0.512      339.954       13.641      861.906
01/22/2014  15:53:00       11.590        5.247       15.236       18.229       15.626       15.472      332.286      244.165      239.372        0.060        0.041       12.723       12.417        0.953      339.907       13.562      861.892
01/22/2014  15:54:00        2.096       14.166       28.680       15.155       17.972       14.049      229.682      322.977      197.388        0.089        0.038       14.320       11.257        0.618      339.971       13.670      861.879
01/22/2014  15:55:00       48.282        2.611       21.267       29.430       25.087       22.819      866.147      629.378      520.689        0.240        0.101       48.352       16.030        0.110      339.793       13.370      861.879
01/22/2014  15:56:00       62.742       37.587       -6.200       20.544       22.935       15.874      422.046      525.993      251.994        0.329        0.060       73.139       12.552        0.029      339.769       13.331      861.880
01/22/2014  15:57:00       41.570       -0.518        5.960       14.632       11.291       13.174      214.106      127.489      173.563        0.114        0.026       41.573        8.950        0.046      339.810       13.400      861.885
01/22/2014  15:58:00       66.102       20.608       11.887       27.811       21.372       19.756      773.427      456.779      390.284        0.328        0.081       69.240       13.977        0.041      339.818       13.413      861.887
01/22/2014  15:59:00       37.939       21.460        4.012       24.502       23.604       18.884      600.359      557.133      356.597        0.171        0.076       43.588       16.468        0.143      339.812       13.402      861.887
01/22/2014  16:00:00       26.556       11.030       11.827       19.496       12.388       12.216      380.109      153.471      149.241        0.082        0.034       28.756        6.909        0.058      339.910       13.565      861.890
01/22/2014  16:01:00        5.988        2.516       15.455       20.509       20.525       16.439      420.609      421.280      270.255        0.070        0.056        6.495       16.888        6.761      340.058       13.818      861.897
01/22/2014  16:02:00       48.706       21.500       12.383       23.155       13.815       14.550      536.133      190.863      211.716        0.196        0.047       53.240       10.216        0.037      339.849       13.464      861.903
01/22/2014  16:03:00       40.782       26.700       10.049       22.312       15.787       14.633      497.810      249.222      214.135        0.172        0.048       48.745        9.566        0.039      339.800       13.382      861.912
01/22/2014  16:04:00        8.885       -8.286       -0.457       16.538       37.235       16.089      273.510     1386.466      258.862        0.103        0.096       12.149       19.092        2.470      339.956       13.645      861.914
01/22/2014  16:05:00       57.228      -75.092       -2.393       34.650       38.363       27.881     1200.619     1471.720      777.378        0.618        0.172       94.413       25.822        0.075      339.927       13.596      861.919
01/22/2014  16:06:00       41.421      -49.805       -2.076       46.543       38.533       31.528     2166.222     1484.824      994.033        0.442        0.232       64.778       29.132        0.202      339.868       13.497      861.925
01/22/2014  16:07:00       46.249      -58.183      -18.080       37.417       55.453       21.314     1400.031     3075.055      454.280        0.539        0.246       74.325       29.173        0.154      339.842       13.454      861.930
01/22/2014  16:08:00       -8.614      -11.500        7.602       15.321       23.573       15.218      234.736      555.664      231.581        0.064        0.051       14.368       14.875        1.072      339.885       13.525      861.934
01/22/2014  16:09:00      -12.142      -23.282       11.967       16.990       22.290       19.875      288.676      496.847      395.012        0.101        0.059       26.258        6.809        0.067      339.990       13.701      861.935
01/22/2014  16:10:00       -4.682      -31.289        4.384       19.774       44.141       19.874      390.994     1948.402      394.958        0.188        0.137       31.638       17.812        0.317      339.991       13.705      861.931
01/22/2014  16:11:00       16.069      -78.641       -8.892       32.703       33.032       22.346     1069.484     1091.081      499.327        0.459        0.133       80.266       17.608        0.048      339.930       13.601      861.926
01/22/2014  16:12:00       36.206      -70.411       -8.194       19.342       24.837       17.593      374.112      616.870      309.499        0.382        0.065       79.174        7.210        0.008      339.946       13.627      861.922
01/22/2014  16:13:00       30.521      -20.460        3.413       24.944       25.813       14.347      622.211      666.331      205.834        0.143        0.075       36.745       13.603        0.137      339.921       13.586      861.912
01/22/2014  16:14:00       31.636       28.750       17.364       22.428       12.890       17.140      503.035      166.145      293.783        0.155        0.048       42.748       16.324        0.146      339.794       13.373      861.898
01/22/2014  16:15:00        6.673       10.527       31.373       18.353       15.911       16.020      336.847      253.162      256.628        0.099        0.042       12.464        9.353        0.563      339.874       13.508      861.886
01/22/2014  16:16:00       -7.077        6.987        9.756       13.248       13.962       10.528      175.518      194.939      110.846        0.034        0.024        9.945        7.819        0.618      339.897       13.547      861.877
01/22/2014  16:17:00       -1.894       -3.756        8.239       17.573       19.143       17.153      308.797      366.449      294.226        0.053        0.048        4.207       16.255       14.930      339.943       13.623      861.875
01/22/2014  16:18:00       -0.566        5.066       22.860       15.150       29.393       17.069      229.528      863.968      291.358        0.097        0.069        5.098       20.386       15.993      339.806       13.391      861.886
01/22/2014  16:19:00       15.539       23.657       22.316       19.581       16.484       14.954      383.403      271.712      223.628        0.109        0.044       28.304       15.575        0.303      339.836       13.443      861.884
01/22/2014  16:20:00       40.631        6.289       -0.786       18.803       20.322       16.704      353.541      412.992      279.030        0.137        0.052       41.114        9.411        0.052      339.887       13.528      861.880
01/22/2014  16:21:00       21.660       28.662       -4.677       16.960        8.829        9.713      287.641       77.951       94.338        0.089        0.023       35.926        9.184        0.065      339.874       13.508      861.884
01/22/2014  16:22:00       33.719       26.431        9.743       13.788       12.363       11.681      190.102      152.832      136.457        0.120        0.024       42.844        8.835        0.043      339.801       13.384      861.882
01/22/2014  16:23:00       41.709       12.789        8.862       18.432       16.097       12.855      339.729      259.113      165.244        0.137        0.038       43.626       10.448        0.057      339.804       13.390      861.886
01/22/2014  16:24:00       52.221       28.070        9.634       21.184       19.380       16.760      448.758      375.581      280.911        0.236        0.055       59.287       10.223        0.030      339.771       13.333      861.898
01/22/2014  16:25:00       52.145       36.510        3.608       14.419       12.905       10.476      207.915      166.527      109.737        0.227        0.024       63.656        5.103        0.006      339.824       13.423      861.898
01/22/2014  16:26:00       37.006       19.566       -6.626        7.515       11.810        6.050       56.477      139.465       36.603        0.101        0.012       41.860        4.764        0.013      339.855       13.481      861.889
01/22/2014  16:27:00       21.289       32.215       -5.759        8.527       16.358        5.718       72.714      267.585       32.692        0.095        0.019       38.614        4.183        0.012      339.841       13.451      861.880
01/22/2014  16:28:00       22.359       41.655       -5.909        8.959       14.030       10.178       80.256      196.851      103.601        0.133        0.019       47.276        7.281        0.024      339.837       13.443      861.877
01/22/2014  16:29:00       14.033       39.753       -8.733        6.418        9.694        5.012       41.193       93.982       25.123        0.101        0.008       42.157        3.456        0.007      339.847       13.459      861.885
01/22/2014  16:30:00       20.660       21.965        0.150        8.436       10.432        8.620       71.173      108.820       74.298        0.058        0.013       30.155        6.816        0.051      339.810       13.397      861.895
01/22/2014  16:31:00       36.058       18.940        1.456       12.412        9.705       11.743      154.059       94.185      137.897        0.102        0.019       40.730        8.919        0.048      339.787       13.358      861.889
01/22/2014  16:32:00       23.287        1.748       13.514       20.191       13.958        8.675      407.695      194.816       75.252        0.070        0.034       23.352        6.561        0.079      339.905       13.558      861.879
01/22/2014  16:33:00       26.455       27.194        6.004       14.323        6.336        8.525      205.152       40.144       72.674        0.090        0.016       37.939        3.654        0.009      339.740       13.281      861.873
01/22/2014  16:34:00       41.687       29.711        7.198        8.314        6.579        6.681       69.116       43.283       44.635        0.141        0.008       51.192        5.114        0.010      339.750       13.297      861.875
01/22/2014  16:35:00       52.447       32.217        4.583       14.150       10.908        7.863      200.232      118.993       61.829        0.210        0.019       61.552        4.935        0.006      339.692       13.199      861.880
01/22/2014  16:36:00       65.620       36.773        8.686       22.649       16.028       16.889      512.991      256.890      285.221        0.339        0.053       75.221       13.326        0.031      339.779       13.346      861.880
01/22/2014  16:37:00       41.867       35.032       13.555       12.798       11.447       13.247      163.800      131.026      175.474        0.182        0.024       54.590        6.278        0.013      339.726       13.259      861.876
01/22/2014  16:38:00       61.447       37.831        8.060       12.882       13.088        8.666      165.954      171.294       75.098        0.284        0.021       72.159        3.329        0.002      339.768       13.328      861.885
01/22/2014  16:39:00       34.945       25.413        6.074       15.842       14.609       12.658      250.958      213.431      160.236        0.126        0.031       43.209        3.009        0.005      339.703       13.218      861.897
01/22/2014  16:40:00       39.981       28.135        2.799       11.412       10.250        9.895      130.238      105.055       97.918        0.137        0.017       48.888        8.203        0.028      339.700       13.213      861.919
01/22/2014  16:41:00       30.692       22.019       -2.198        9.156        7.692        5.097       83.833       59.161       25.984        0.080        0.008       37.773        4.257        0.013      339.753       13.307      861.928
01/22/2014  16:42:00       26.552       16.681       -3.822        4.579        7.808        4.049       20.969       60.966       16.394        0.055        0.005       31.357        2.478        0.006      339.754       13.308      861.923
01/22/2014  16:43:00       30.311        9.994       -0.866        8.422        3.550        3.214       70.934       12.599       10.329        0.056        0.005       31.916        2.125        0.004      339.774       13.345      861.909
01/22/2014  16:44:00       27.234        7.934        0.419        8.071        3.933        4.572       65.146       15.465       20.900        0.045        0.005       28.366        3.077        0.012      339.725       13.259      861.906
01/22/2014  16:45:00       11.526        9.924        0.628        7.601        4.456        3.855       57.782       19.852       14.865        0.016        0.005       15.209        3.809        0.063      339.743       13.285      861.901
01/22/2014  16:46:00        1.311       26.927       -3.668        5.047       13.824        5.086       25.475      191.104       25.867        0.049        0.012       26.959        6.553        0.059      339.751       13.300      861.892
01/22/2014  16:47:00      -24.664       22.640       -3.758       17.572       26.563       10.238      308.771      705.584      104.813        0.113        0.056       33.480        7.856        0.055      339.765       13.322      861.881
01/22/2014  16:48:00      -54.289       19.366       -7.785       12.376       11.021        9.245      153.156      121.457       85.479        0.187        0.018       57.639        4.643        0.006      339.743       13.284      861.871
01/22/2014  16:49:00      -36.729       18.362       -0.358       10.355       23.091       10.546      107.219      533.174      111.218        0.122        0.038       41.063        7.178        0.031      339.768       13.328      861.874
01/22/2014  16:50:00       -1.708       18.967        0.224       15.346       14.915       10.816      235.510      222.459      116.978        0.047        0.029       19.044       10.377        0.297      339.788       13.362      861.866
01/22/2014  16:51:00      -15.224       31.126       -3.127       14.274       24.946        8.339      203.751      622.295       69.539        0.105        0.045       34.650       10.830        0.098      339.735       13.274      861.852
01/22/2014  16:52:00       -2.242       45.864       -5.015       10.916       16.118        9.074      119.169      259.780       82.343        0.130        0.023       45.919        7.068        0.024      339.728       13.263      861.839
01/22/2014  16:53:00        6.065        4.294       -7.128       14.966        7.908        5.005      223.991       62.537       25.055        0.021        0.016        7.431        5.065        0.465      339.649       13.126      861.827
01/22/2014  16:54:00       10.484        3.460        2.502        5.745        7.989        6.033       33.001       63.832       36.397        0.013        0.007       11.041        3.624        0.108      339.594       13.035      861.820
01/22/2014  16:55:00      -38.610       -9.500       -4.215       20.562        9.876        9.800      422.778       97.538       96.034        0.111        0.031       39.761       10.504        0.070      339.374       12.664      861.820
01/22/2014  16:56:00      -44.526      -20.845       -4.757       15.494       15.612        9.375      240.075      243.748       87.898        0.151        0.029       49.164        7.597        0.024      339.171       12.322      861.815
01/22/2014  16:57:00      -64.668       -8.521      -10.679       22.377       19.629       13.426      500.745      385.313      180.257        0.272        0.053       65.227       12.720        0.038      339.033       12.088      861.812
01/22/2014  16:58:00      -66.751      -19.712      -11.271       17.741       21.083       11.513      314.752      444.492      132.555        0.293        0.045       69.601        8.767        0.016      338.819       11.729      861.817
01/22/2014  16:59:00      -48.377       -1.451       -2.030       34.684       20.055       15.297     1202.952      402.191      233.995        0.209        0.092       48.399       14.293        0.087      338.896       11.859      861.827
01/22/2014  17:00:00      -64.562       -1.188       -7.059       26.188       26.974       19.129      685.837      727.585      365.935        0.300        0.089       64.573       14.975        0.054      339.026       12.078      861.840
01/22/2014  17:01:00      -90.898        3.640      -14.049       20.140       16.186       13.543      405.608      261.986      183.411        0.466        0.043       90.971       11.268        0.015      338.990       12.017      861.841
01/22/2014  17:02:00      -89.465        6.545      -18.340       21.236       23.900       12.535      450.955      571.191      157.114        0.478        0.059       89.704        9.707        0.012      339.071       12.153      861.859
01/22/2014  17:03:00      -80.000       -2.692      -13.080       26.614       21.499       14.929      708.295      462.219      222.882        0.399        0.070       80.045       10.308        0.017      338.839       11.763      861.871
01/22/2014  17:04:00      -87.769        6.598      -12.272       40.693       33.778       18.386     1655.902     1140.920      338.038        0.552        0.157       88.016       19.269        0.048      338.664       11.471      861.885
01/22/2014  17:05:00      -66.560        9.525       -6.946       49.486       35.286       20.212     2448.892     1245.076      408.544        0.434        0.205       67.238       20.523        0.093      338.723       11.568      861.906
01/22/2014  17:06:00     -105.040      -18.150      -12.539       41.705       38.467       20.467     1739.301     1479.737      418.912        0.758        0.182      106.596       13.255        0.015      338.560       11.295      861.895
01/22/2014  17:07:00      -73.281      -11.027        3.411       45.445       33.239       25.909     2065.246     1104.807      671.282        0.467        0.192       74.106       21.304        0.083      338.372       10.977      861.906
01/22/2014  17:08:00     -118.255      -15.473      -16.286       47.400       41.064       24.230     2246.786     1686.274      587.077        0.950        0.226      119.263       19.965        0.028      338.238       10.755      861.904
01/22/2014  17:09:00     -127.619        6.597      -18.537       50.942       45.398       32.633     2595.051     2060.995     1064.914        1.120        0.286      127.789       28.020        0.048      338.328       10.905      861.915
01/22/2014  17:10:00     -147.910       51.591      -12.732       61.752       42.515       29.500     3813.327     1807.491      870.266        1.559        0.325      156.649       25.018        0.026      338.272       10.810      861.920
01/22/2014  17:11:00     -159.938       57.056      -22.316       69.872       40.540       29.302     4882.028     1643.487      858.616        1.836        0.369      169.810       23.305        0.019      338.186       10.665      861.930
01/22/2014  17:12:00     -197.561       69.097      -18.798       64.473       41.150       33.698     4156.746     1693.316     1135.557        2.557        0.349      209.296       19.729        0.009      338.181       10.654      861.934
01/22/2014  17:13:00     -185.750       44.509      -21.233       40.213       35.873       23.216     1617.098     1286.854      538.998        2.019        0.172      191.008       15.787        0.007      338.124       10.562      861.939
01/22/2014  17:14:00     -175.902       42.648      -19.412       42.812       36.405       22.914     1832.906     1325.315      525.057        1.841        0.184      180.998        9.882        0.003      338.104       10.528      861.941
01/22/2014  17:15:00     -193.939       28.418      -29.557       55.829       34.957       23.979     3116.850     1222.024      575.007        2.210        0.246      196.010       14.067        0.005      338.014       10.375      861.943
01/22/2014  17:16:00     -227.425       54.603      -21.057       38.509       32.230       21.389     1482.941     1038.785      457.468        2.906        0.149      233.888       10.094        0.002      337.939       10.248      861.947
01/22/2014  17:17:00     -212.132       44.870      -21.639       36.532       37.619       23.916     1334.575     1415.220      571.978        2.540        0.166      216.826       11.666        0.003      337.873       10.139      861.950
01/22/2014  17:18:00     -206.432       59.402      -20.994       50.802       34.066       21.015     2580.868     1160.517      441.630        2.538        0.209      214.809       19.244        0.008      337.882       10.153      861.960
01/22/2014  17:19:00     -185.001       23.490      -17.629       51.607       38.752       24.931     2663.245     1501.719      621.532        1.994        0.239      186.486       24.553        0.017      337.919       10.218      861.967
01/22/2014  17:20:00     -163.445       11.475      -19.283       49.939       35.420       24.795     2493.905     1254.567      614.768        1.579        0.218      163.848       23.846        0.021      337.817       10.048      861.975
01/22/2014  17:21:00     -143.458       -4.144      -18.239       33.859       29.343       22.691     1146.446      861.009      514.883        1.173        0.126      143.518       19.718        0.019      337.890       10.170      861.991
01/22/2014  17:22:00     -105.927       14.675      -10.752       38.711       33.921       28.587     1498.579     1150.665      817.239        0.751        0.173      106.939       20.899        0.038      337.997       10.350      862.004
01/22/2014  17:23:00     -114.686       27.159       -0.167       38.811       39.222       27.602     1506.269     1538.346      761.894        0.885        0.190      117.858       18.171        0.024      338.200       10.690      862.022
01/22/2014  17:24:00      -74.737       79.414      -11.064       34.396       42.161       25.563     1183.058     1777.535      653.477        0.781        0.181      109.051       23.150        0.045      338.235       10.748      862.040
01/22/2014  17:25:00      -96.501       88.426      -19.068       35.785       33.246       20.975     1280.539     1105.268      439.936        1.016        0.141      130.888       19.695        0.023      338.319       10.889      862.056
01/22/2014  17:26:00      -72.069       74.228      -21.297       16.869       33.782       12.590      284.566     1141.222      158.507        0.637        0.079      103.459       11.069        0.011      338.317       10.886      862.072
01/22/2014  17:27:00      -40.118       29.355      -10.799       19.254       15.691       10.892      370.734      246.213      118.639        0.166        0.037       49.711        7.811        0.025      338.357       10.953      862.082
01/22/2014  17:28:00       -4.839       12.898       -1.591       13.937       15.792        8.302      194.244      249.383       68.919        0.035        0.026       13.776        5.259        0.146      338.363       10.963      862.098
01/22/2014  17:29:00       32.963       59.599      -13.814       16.619       18.417       12.663      276.202      339.195      160.341        0.280        0.039       68.108        9.521        0.020      338.236       10.750      862.110
01/22/2014  17:30:00       36.078       30.663       -0.285       18.761       20.919       12.667      351.985      437.611      160.463        0.160        0.048       47.348        8.534        0.032      338.128       10.570      862.122
01/22/2014  17:31:00       68.108       55.125        0.467       30.676       22.372       22.040      940.993      500.520      485.775        0.480        0.096       87.621        7.692        0.008      337.906       10.196      862.145
01/22/2014  17:32:00       46.999       76.005       -0.611       35.254       55.403       27.794     1242.869     3069.443      772.519        0.653        0.254       89.363       29.107        0.106      337.860       10.120      862.170
01/22/2014  17:33:00       40.006       96.240      -16.335       42.544       49.266       32.708     1809.969     2427.120     1069.835        0.822        0.265      104.224       31.126        0.089      337.956       10.280      862.192
01/22/2014  17:34:00       38.941       92.945      -14.802       23.815       26.609       20.289      567.175      708.057      411.631        0.603        0.084      100.773       15.749        0.024      337.884       10.161      862.205
01/22/2014  17:35:00      -27.992       65.919      -15.639       42.571       43.341       13.492     1812.260     1878.411      182.025        0.462        0.194       71.616       13.413        0.035      338.010       10.371      862.193
01/22/2014  17:36:00      -67.489       33.572      -11.626       33.854       56.568       19.507     1146.067     3199.956      380.508        0.527        0.236       75.378       27.653        0.135      338.410       11.043      862.169
01/22/2014  17:37:00      -65.996       79.163      -14.141       50.192       32.250       28.759     2519.285     1040.033      827.102        0.760        0.219      103.064       24.563        0.057      338.289       10.839      862.170
01/22/2014  17:38:00      -66.421       29.802       -8.325       27.466       23.037       11.682      754.403      530.704      136.460        0.340        0.071       72.801        9.030        0.015      338.058       10.450      862.181
01/22/2014  17:39:00      -62.744       39.652      -13.486       32.305       28.423       15.162     1043.633      807.858      229.895        0.389        0.104       74.223       16.529        0.050      338.228       10.738      862.191
01/22/2014  17:40:00      -58.029       40.924      -12.483       28.033       28.651       17.369      785.836      820.853      301.668        0.355        0.095       71.008       16.104        0.051      338.294       10.846      862.195
01/22/2014  17:41:00      -58.437       63.276      -12.659       21.915       45.739       18.863      480.280     2092.035      355.797        0.525        0.146       86.132       18.898        0.048      338.373       10.979      862.197
01/22/2014  17:42:00      -47.734       92.006      -17.249       25.151       52.845       23.843      632.587     2792.619      568.486        0.752        0.200      103.651       23.885        0.053      338.470       11.144      862.213
01/22/2014  17:43:00      -19.777      188.289      -16.248       59.286       92.365       33.028     3514.846     8531.214     1090.838        2.462        0.657      189.325       38.274        0.041      338.524       11.233      862.220
01/22/2014  17:44:00      -53.536      147.796      -23.074       44.590       70.804       27.581     1988.308     5013.243      760.706        1.650        0.388      157.194       22.732        0.021      338.422       11.062      862.218
01/22/2014  17:45:00      -74.035       -3.241       -5.718       25.692       23.391       13.357      660.093      547.156      178.413        0.345        0.069       74.106        8.282        0.012      338.069       10.470      862.209
01/22/2014  17:46:00      -71.196        7.068      -21.507       33.293       44.697       14.650     1108.396     1997.848      214.608        0.445        0.166       71.546       14.912        0.043      337.941       10.254      862.210
01/22/2014  17:47:00      -81.288       13.871      -13.539       32.969       40.024       19.124     1086.937     1601.959      365.728        0.502        0.153       82.463       13.413        0.026      338.103       10.527      862.195
01/22/2014  17:48:00      -34.175       32.062       -7.865       34.903       45.440       23.172     1218.233     2064.802      536.920        0.304        0.191       46.861       25.741        0.302      338.147       10.601      862.197
01/22/2014  17:49:00      -83.756       30.961      -19.558       30.184       31.680       25.888      911.094     1003.643      670.190        0.547        0.129       89.295       11.001        0.015      338.063       10.459      862.201
01/22/2014  17:50:00     -114.153       26.148       -8.969       35.756       37.140       30.984     1278.510     1379.358      960.003        0.871        0.181      117.109       26.654        0.052      338.240       10.757      862.195
01/22/2014  17:51:00     -154.853       -9.026      -13.278       35.658       33.488       16.872     1271.516     1121.477      284.673        1.346        0.134      155.116       13.789        0.008      337.970       10.305      862.191
01/22/2014  17:52:00     -139.269       -1.940      -16.843       33.077       31.499       17.323     1094.119      992.157      300.101        1.103        0.119      139.282       14.418        0.011      337.920       10.219      862.195
01/22/2014  17:53:00     -140.876       10.379      -16.422       21.598       23.877       19.720      466.471      570.106      388.865        1.082        0.071      141.258        7.961        0.003      337.917       10.215      862.201
01/22/2014  17:54:00     -128.186       24.200      -18.449       39.502       44.301       24.732     1560.396     1962.539      611.681        1.075        0.207      130.450       22.220        0.029      337.888       10.166      862.199
01/22/2014  17:55:00     -120.494       71.023      -16.683       55.206       72.051       35.854     3047.699     5191.292     1285.502        1.468        0.476      139.868       23.240        0.028      337.886       10.163      862.199
01/22/2014  17:56:00     -128.550       52.273      -15.275       51.722       57.384       31.666     2675.156     3292.959     1002.743        1.323        0.349      138.772       30.471        0.048      337.798       10.015      862.199
01/22/2014  17:57:00     -182.014       94.349      -28.863       53.998       55.653       44.758     2915.753     3097.249     2003.267        2.544        0.401      205.014       38.651        0.036      337.859       10.116      862.206
01/22/2014  17:58:00     -173.339      128.814      -36.341       77.987       78.396       48.674     6081.899     6145.986     2369.184        3.128        0.730      215.962       55.922        0.067      337.911       10.203      862.211
01/22/2014  17:59:00     -148.700      117.769      -27.161       67.961       63.130       40.213     4618.719     3985.426     1617.098        2.347        0.511      189.687       38.262        0.041      337.864       10.124      862.228
01/22/2014  18:00:00     -179.378      137.857      -31.801       63.335       57.475       44.879     4011.352     3303.426     2014.119        3.076        0.466      226.232       34.272        0.023      337.973       10.305      862.242
01/22/2014  18:01:00     -156.474      166.020      -21.605       69.385       93.547       51.612     4814.341     8751.132     2663.767        3.437        0.811      228.138       48.506        0.045      337.934       10.240      862.249
01/22/2014  18:02:00     -186.578       77.554      -27.021       62.448       69.894       32.436     3899.812     4885.194     1052.100        2.569        0.492      202.054       16.124        0.006      337.901       10.186      862.251
01/22/2014  18:03:00     -114.012       86.345      -26.167       59.175       72.096       32.070     3501.656     5197.791     1028.475        1.543        0.486      143.018       38.341        0.072      337.796       10.011      862.269
01/22/2014  18:04:00     -147.121      119.277      -24.802       44.797       73.377       35.540     2006.769     5384.218     1263.110        2.257        0.433      189.398       30.234        0.025      337.813       10.038      862.276
01/22/2014  18:05:00     -155.763      165.820      -39.053       58.699      104.736       40.649     3445.526    10969.595     1652.316        3.467        0.803      227.505       42.470        0.035      337.798       10.013      862.284
01/22/2014  18:06:00     -178.840      172.011      -48.126       47.537       72.276       33.375     2259.786     5223.810     1113.897        3.624        0.430      248.136       34.604        0.019      337.945       10.257      862.306
01/22/2014  18:07:00     -159.954      167.275      -39.787       57.844       81.956       38.060     3345.951     6716.730     1448.588        3.333        0.576      231.443       41.571        0.032      337.880       10.149      862.333
01/22/2014  18:08:00     -117.683      142.969      -34.960       49.197       55.320       31.283     2420.372     3060.258      978.655        2.098        0.323      185.174       28.778        0.024      337.931       10.237      862.365
01/22/2014  18:09:00      -98.327      162.907      -24.997       53.784       72.672       35.417     2892.698     5281.212     1254.354        2.313        0.471      190.281       31.322        0.027      337.891       10.170      862.377
01/22/2014  18:10:00     -137.395      128.482      -23.204       60.819       64.484       40.769     3698.906     4158.248     1662.130        2.272        0.476      188.109       36.578        0.038      337.902       10.187      862.404
01/22/2014  18:11:00     -115.161      153.546      -25.365       63.244       76.096       39.248     3999.770     5790.601     1540.378        2.440        0.567      191.933       33.612        0.031      337.821       10.051      862.406
01/22/2014  18:12:00     -114.519      161.406      -34.506       65.058       68.875       41.736     4232.567     4743.738     1741.886        2.554        0.536      197.906       31.913        0.026      337.794       10.005      862.409
01/22/2014  18:13:00     -125.524      101.928      -17.712       65.111       74.661       38.077     4239.406     5574.214     1449.861        1.886        0.563      161.696       42.263        0.068      337.707        9.862      862.395
01/22/2014  18:14:00      -52.686      -11.866        3.365       32.388       27.669       19.258     1048.954      765.601      370.871        0.256        0.109       54.006       12.882        0.057      337.632        9.738      862.388
01/22/2014  18:15:00      -17.846       47.837        4.686       22.555       47.316       24.799      508.711     2238.814      614.975        0.300        0.168       51.058       23.849        0.218      337.540        9.583      862.402
01/22/2014  18:16:00      -14.793        7.784       -4.555       31.524       27.397       14.143      993.739      750.619      200.032        0.112        0.097       16.715        9.538        0.326      337.464        9.455      862.413
01/22/2014  18:17:00      -15.678      -13.214        6.635       16.630       14.099        8.822      276.544      198.782       77.832        0.051        0.028       20.504        8.883        0.188      337.420        9.379      862.426
01/22/2014  18:18:00      -47.530       37.398      -13.307       18.467       23.221       14.721      341.046      539.203      216.707        0.247        0.055       60.479       12.139        0.040      337.524        9.555      862.446
01/22/2014  18:19:00      -25.981        9.348       -6.189       22.550       27.514       20.214      508.521      757.038      408.602        0.124        0.084       27.612       12.679        0.211      337.527        9.562      862.442
01/22/2014  18:20:00      -31.991        3.633       -0.877       36.849       40.101       26.017     1357.884     1608.094      676.895        0.234        0.182       32.197       25.221        0.614      337.449        9.431      862.441
01/22/2014  18:21:00       -5.805      -14.500       -4.401       14.666       22.034       15.237      215.078      485.504      232.169        0.060        0.047       15.619        7.964        0.260      337.463        9.452      862.463
01/22/2014  18:22:00        6.638      -16.509        8.875       16.293       15.204       17.532      265.455      231.158      307.375        0.060        0.040       17.794       14.244        0.641      337.427        9.392      862.475
01/22/2014  18:23:00      -12.009       27.743       47.242       10.892       20.126       13.939      118.640      405.039      194.288        0.193        0.036       30.231        5.611        0.034      337.259        9.111      862.508
01/22/2014  18:24:00       -1.231      -32.585       12.104       18.837       32.103       23.218      354.823     1030.623      539.092        0.157        0.096       32.608       21.586        0.438      337.357        9.277      862.525
01/22/2014  18:25:00       -9.063      -45.555       -6.080       25.148       19.979       16.967      632.436      399.156      287.873        0.176        0.066       46.448       12.882        0.077      337.397        9.342      862.531
01/22/2014  18:26:00      -10.838      -38.924       -8.175       20.116       17.850       11.293      404.667      318.612      127.543        0.127        0.043       40.405        5.675        0.020      337.426        9.392      862.513
01/22/2014  18:27:00      -22.442      -52.792      -13.668       51.869       25.670       19.961     2690.351      658.970      398.425        0.361        0.187       57.364       18.123        0.100      337.272        9.136      862.526
01/22/2014  18:28:00      -36.352      -20.693       -6.302       34.770       19.317       16.600     1208.920      373.150      275.563        0.182        0.093       41.829       12.912        0.095      337.242        9.085      862.561
01/22/2014  18:29:00      -13.588      -30.783       -2.395       17.004       18.220       15.311      289.147      331.982      234.427        0.100        0.043       33.649        8.438        0.063      337.301        9.183      862.580
01/22/2014  18:30:00      -34.692      -30.808       -7.582       43.674       21.820       12.016     1907.435      476.126      144.395        0.237        0.126       46.397       10.963        0.056      337.355        9.272      862.602
01/22/2014  18:31:00      -67.978      -45.108        7.747       58.928       33.667       23.794     3472.466     1133.448      566.165        0.594        0.259       81.583       23.195        0.081      337.277        9.143      862.612
01/22/2014  18:32:00      -30.650      -47.882        7.931       37.410       32.120       22.631     1399.515     1031.715      512.178        0.312        0.147       56.852       21.285        0.140      337.241        9.083      862.615
01/22/2014  18:33:00      -50.908      -81.149        2.864       28.877       30.310       21.643      833.871      918.685      468.405        0.570        0.111       95.795       20.581        0.046      337.371        9.301      862.620
01/22/2014  18:34:00      -78.857      -67.624       -0.338       38.502       34.096       23.907     1482.416     1162.529      571.541        0.700        0.161      103.882       25.757        0.061      337.246        9.090      862.614
01/22/2014  18:35:00      -97.440      -78.398       -5.729       46.678       38.064       26.530     2178.876     1448.893      703.829        1.000        0.217      125.063       24.132        0.037      337.184        8.988      862.609
01/22/2014  18:36:00     -140.052      -55.845       -1.138       42.658       39.524       24.391     1819.719     1562.131      594.915        1.335        0.199      150.776       24.016        0.025      337.041        8.746      862.635
01/22/2014  18:37:00     -152.651      -56.990       -4.045       49.021       40.001       24.106     2403.062     1600.054      581.098        1.557        0.229      162.942       25.349        0.024      336.976        8.637      862.649
01/22/2014  18:38:00     -105.725      -89.648        1.739       61.747       37.916       31.170     3812.739     1437.608      971.583        1.272        0.311      138.616       27.710        0.040      336.992        8.664      862.638
01/22/2014  18:39:00     -169.313      -82.914       -4.313       52.063       35.633       27.310     2710.596     1269.696      745.839        2.014        0.236      188.525       21.533        0.013      337.086        8.821      862.636
01/22/2014  18:40:00     -223.290      -68.984      -29.972       37.286       41.748       22.072     1390.211     1742.922      487.187        2.957        0.181      233.703       11.097        0.002      337.049        8.756      862.634
01/22/2014  18:41:00     -118.954      -13.722      -14.869       36.318       37.516       25.645     1318.997     1407.460      657.648        0.897        0.169      119.743       20.204        0.028      337.010        8.694      862.639
01/22/2014  18:42:00     -141.133      -49.814       -6.364       51.956       41.780       25.807     2699.435     1745.567      665.987        1.377        0.256      149.667       23.876        0.025      337.012        8.699      862.640
01/22/2014  18:43:00     -174.626      -26.093      -12.222       55.324       34.766       17.646     3060.709     1208.647      311.375        1.795        0.229      176.565       12.036        0.005      337.063        8.782      862.637
01/22/2014  18:44:00     -169.062      -31.673       -7.989       36.544       37.331       27.262     1335.473     1393.591      743.208        1.656        0.174      172.003       24.312        0.020      337.032        8.732      862.621
01/22/2014  18:45:00     -173.336      -78.132       -4.835       41.127       25.911       19.390     1691.395      671.388      375.976        1.946        0.137      190.132       16.358        0.007      337.044        8.751      862.622
01/22/2014  18:46:00     -182.247      -93.998       -4.495       47.876       29.044       28.346     2292.119      843.531      803.499        2.300        0.197      205.060       30.110        0.022      336.884        8.484      862.618
01/22/2014  18:47:00     -161.679      -52.346      -11.022       73.983       58.883       27.418     5473.519     3467.198      751.768        1.935        0.485      169.942       31.083        0.033      336.705        8.185      862.610
01/22/2014  18:48:00     -166.106      -21.663      -14.488       44.153       43.739       25.861     1949.476     1913.140      668.782        1.640        0.227      167.513       20.500        0.015      336.607        8.023      862.607
01/22/2014  18:49:00     -173.871      -31.497      -23.504       52.953       46.280       34.105     2803.995     2141.850     1163.140        1.894        0.305      176.701       27.867        0.025      336.650        8.094      862.598
01/22/2014  18:50:00     -182.108        9.715      -17.560       32.039       39.230       27.710     1026.484     1539.004      767.832        1.845        0.167      182.367       20.368        0.012      336.617        8.040      862.590
01/22/2014  18:51:00     -167.796      -17.882      -14.366       53.973       45.184       31.852     2913.061     2041.625     1014.522        1.732        0.298      168.746       32.029        0.036      336.594        8.000      862.597
01/22/2014  18:52:00     -135.198      -17.048       -7.935       44.214       50.584       32.602     1954.874     2558.710     1062.892        1.210        0.279      136.269       27.423        0.040      336.539        7.909      862.576
01/22/2014  18:53:00     -151.517      -39.957      -18.884       54.628       41.225       28.409     2984.210     1699.461      807.094        1.520        0.275      156.697       25.936        0.027      336.548        7.925      862.561
01/22/2014  18:54:00     -116.037      -47.147      -12.927       46.774       45.942       26.045     2187.778     2110.657      678.350        1.041        0.249      125.249       22.019        0.031      336.538        7.908      862.553
01/22/2014  18:55:00      -92.448      -33.498       -5.273       41.195       48.003       22.738     1697.040     2304.286      517.020        0.711        0.226       98.330       11.510        0.014      336.576        7.971      862.540
01/22/2014  18:56:00      -70.170      -19.478       -4.688       38.801       29.049       23.167     1505.513      843.837      536.709        0.411        0.144       72.823       12.441        0.029      336.573        7.966      862.543
01/22/2014  18:57:00      -70.723      -20.415      -13.049       26.113       27.303       24.285      681.867      745.450      589.754        0.380        0.101       73.611        8.854        0.014      336.569        7.960      862.538
01/22/2014  18:58:00      -96.987        4.937       -5.909       29.289       47.009       35.569      857.839     2209.862     1265.140        0.690        0.217       97.112       13.527        0.019      336.576        7.971      862.553
01/22/2014  18:59:00     -131.685       54.658      -26.617       60.954       47.585       25.178     3715.365     2264.307      633.954        1.382        0.331      142.577       29.113        0.042      336.672        8.131      862.559
01/22/2014  19:00:00     -136.817       93.635      -29.666       38.609       40.805       21.735     1490.639     1665.077      472.420        1.600        0.181      165.790       16.318        0.010      336.796        8.337      862.578
01/22/2014  19:01:00      -97.630       91.542      -21.386       32.444       46.638       19.126     1052.644     2175.068      365.810        1.098        0.180      133.834       12.766        0.009      336.760        8.279      862.579
01/22/2014  19:02:00     -122.209       87.120      -33.339       26.549       37.980       19.078      704.826     1442.473      363.960        1.307        0.126      150.083       15.199        0.010      336.838        8.407      862.580
01/22/2014  19:03:00     -122.610       32.247      -17.610       42.033       54.602       28.097     1766.810     2981.395      789.465        1.096        0.277      126.780       18.828        0.022      336.762        8.282      862.577
01/22/2014  19:04:00      -94.500       82.957      -18.648       29.663       35.710       24.064      879.897     1275.239      579.068        0.945        0.137      125.746       15.635        0.015      336.824        8.385      862.595
01/22/2014  19:05:00     -113.688      119.152      -34.619       32.978       50.113       19.952     1087.551     2511.324      398.070        1.616        0.200      164.688       21.005        0.016      336.930        8.560      862.612
01/22/2014  19:06:00      -75.630       93.513      -20.594       26.774       37.951       17.556      716.873     1440.285      308.220        0.868        0.123      120.269       11.362        0.009      336.901        8.514      862.621
01/22/2014  19:07:00      -69.878       97.549      -19.653       36.127       42.673       23.168     1305.174     1821.018      536.738        0.922        0.183      119.994       20.531        0.029      336.861        8.448      862.626
01/22/2014  19:08:00      -38.747       65.876       -8.656       28.051       26.774       14.110      786.832      716.864      199.100        0.381        0.085       76.426       10.928        0.020      336.876        8.473      862.626
01/22/2014  19:09:00      -12.700       93.083      -14.645       16.788       33.320       14.709      281.842     1110.214      216.357        0.532        0.080       93.946       18.191        0.037      336.954        8.601      862.641
01/22/2014  19:10:00      -20.118       62.087       -8.191       15.005       27.706       15.347      225.157      767.600      235.540        0.278        0.061       65.265       17.416        0.071      336.888        8.491      862.635
01/22/2014  19:11:00      -16.279       46.774       -8.270       28.673       30.756       19.921      822.168      945.938      396.830        0.234        0.108       49.526       17.353        0.123      336.916        8.538      862.640
01/22/2014  19:12:00      -46.988        3.810       -4.892       16.324       23.111       16.912      266.464      534.103      286.020        0.167        0.054       47.142        9.671        0.042      336.962        8.616      862.654
01/22/2014  19:13:00      -31.916      -11.126       -2.926       15.687       27.345       11.229      246.075      747.738      126.099        0.114        0.056       33.800        8.830        0.068      336.966        8.620      862.670
01/22/2014  19:14:00       -8.572      -46.399       -4.819       26.081       13.466        8.158      680.232      181.344       66.560        0.159        0.046       47.184        8.031        0.029      336.848        8.424      862.694
01/22/2014  19:15:00      -24.009      -43.906       -7.119       20.928       22.018       14.903      438.001      484.790      222.104        0.185        0.057       50.042       11.113        0.049      336.851        8.430      862.707
01/22/2014  19:16:00       11.099      -19.002       -2.134       24.204       20.351       23.227      585.824      414.171      539.503        0.101        0.077       22.006       19.317        0.771      336.746        8.256      862.714
01/22/2014  19:17:00       -0.958       -2.275       24.329       22.712       31.593       19.732      515.830      998.114      389.357        0.125        0.095        2.469       19.723       63.837      336.641        8.081      862.713
01/22/2014  19:18:00      -23.996      -28.365       -1.693       42.085       33.160       25.806     1771.111     1099.572      665.925        0.246        0.177       37.153       18.254        0.241      336.650        8.095      862.721
01/22/2014  19:19:00       -0.311      -16.880        4.474       23.134       15.933       17.424      535.166      253.871      303.613        0.070        0.055       16.883       10.526        0.389      336.669        8.126      862.733
01/22/2014  19:20:00       -1.487      -13.578       -1.444       15.097       11.775       12.266      227.916      138.640      150.465        0.035        0.026       13.660        7.563        0.307      336.443        7.747      862.741
01/22/2014  19:21:00       -5.190      -33.672       11.658       39.406       19.291       15.438     1552.806      372.124      238.336        0.173        0.108       34.070       14.163        0.173      336.453        7.766      862.740
01/22/2014  19:22:00        0.725      -57.744       -7.820       37.187       26.402       20.549     1382.895      697.079      422.255        0.295        0.125       57.749       18.723        0.105      336.585        7.986      862.728
01/22/2014  19:23:00       -9.469      -73.432      -12.877       30.006       43.653       26.096      900.361     1905.594      680.979        0.457        0.174       74.040       25.299        0.117      336.670        8.129      862.713
01/22/2014  19:24:00      -57.647      -78.781       -0.753       45.118       39.940       32.424     2035.607     1595.179     1051.333        0.711        0.234       97.620       28.397        0.085      336.909        8.527      862.703
01/22/2014  19:25:00      -65.211      -69.396       -1.352       30.265       38.924       21.004      915.986     1515.040      441.151        0.597        0.144       95.228       12.173        0.016      337.119        8.877      862.696
01/22/2014  19:26:00      -18.537      -13.980       10.065       30.962       25.324       16.786      958.643      641.292      281.786        0.126        0.094       23.218       13.186        0.323      336.880        8.478      862.676
01/22/2014  19:27:00       20.048        9.766        9.944       18.672       20.653       18.500      348.657      426.545      342.241        0.086        0.056       22.300        7.836        0.123      336.485        7.818      862.685
01/22/2014  19:28:00       40.384        2.569        5.661       14.896       21.198       17.446      221.878      449.341      304.379        0.132        0.049       40.465       10.625        0.069      336.265        7.450      862.709
01/22/2014  19:29:00       50.963       42.750       49.077       33.419       30.179       23.136     1116.862      910.745      535.272        0.470        0.128       66.519       20.708        0.097      336.367        7.621      862.715
01/22/2014  19:30:00       10.144       63.253       75.674       26.265       24.726       16.160      689.844      611.363      261.145        0.570        0.078       64.061       14.682        0.053      336.536        7.904      862.720
01/22/2014  19:31:00       -2.665       29.833       51.253       19.410       22.296       15.475      376.747      497.091      239.481        0.232        0.056       29.952       12.648        0.178      336.472        7.798      862.735
01/22/2014  19:32:00       17.438       -9.942       18.430       20.153       29.749       24.350      406.128      884.975      592.913        0.131        0.094       20.073       23.984        1.428      336.658        8.108      862.742
01/22/2014  19:33:00      -23.436       -1.207        5.011       36.914       17.981       12.362     1362.625      323.319      152.828        0.121        0.092       23.467       19.233        0.672      336.701        8.181      862.751
01/22/2014  19:34:00      -55.663        0.791      -16.147        7.470        3.905        4.973       55.795       15.251       24.729        0.173        0.005       55.668        3.114        0.003      336.604        8.019      862.750
01/22/2014  19:35:00      -64.675        5.685       -9.575       10.222       15.029        6.725      104.485      225.859       45.220        0.234        0.019       64.925        6.927        0.011      336.843        8.417      862.751
01/22/2014  19:36:00      -47.445       17.159      -14.115        9.156        7.736        7.168       83.828       59.849       51.384        0.147        0.010       50.453        6.539        0.017      337.184        8.987      862.756
01/22/2014  19:37:00      -33.748        0.279      -12.870       13.162       13.209        8.099      173.236      174.468       65.586        0.086        0.021       33.749        6.209        0.034      337.000        8.681      862.759
01/22/2014  19:38:00      -54.080      -21.038      -10.700        6.098        7.917        6.189       37.190       62.680       38.298        0.181        0.007       58.028        3.120        0.003      336.738        8.243      862.762
01/22/2014  19:39:00      -74.469        1.664      -10.297       11.994       10.659        7.669      143.845      113.623       58.818        0.299        0.016       74.487        3.083        0.002      336.543        7.916      862.768
01/22/2014  19:40:00      -89.961       11.239      -13.671        9.683        9.661        6.706       93.760       93.330       44.965        0.432        0.012       90.661        0.620        0.000      336.524        7.885      862.789
01/22/2014  19:41:00      -88.806       18.000      -15.102       11.115        7.926        8.075      123.554       62.820       65.198        0.435        0.013       90.612        2.182        0.001      336.674        8.136      862.803
01/22/2014  19:42:00      -86.886       13.735       -9.891       14.653        9.934        8.692      214.702       98.677       75.559        0.411        0.019       87.965        6.405        0.005      336.756        8.272      862.794
01/22/2014  19:43:00      -71.059       25.144       -5.521       23.032       16.498       11.542      530.451      272.183      133.211        0.332        0.047       75.377        9.991        0.018      336.684        8.152      862.792
01/22/2014  19:44:00      -71.735       45.283      -17.859       26.137       18.342       14.072      683.167      336.432      198.031        0.437        0.061       84.832       14.489        0.029      336.902        8.515      862.795
01/22/2014  19:45:00      -47.745       55.464      -10.591       24.068       37.854       16.227      579.274     1432.959      263.324        0.387        0.114       73.184        8.568        0.014      336.670        8.128      862.808
01/22/2014  19:46:00      -78.497      116.922      -15.194       25.795       28.527       21.362      665.369      813.812      456.330        1.100        0.097      140.828       14.705        0.011      336.370        7.627      862.828
01/22/2014  19:47:00      -84.688      122.446      -26.840       25.737       21.145       18.551      662.377      447.096      344.146        1.217        0.073      148.879       13.703        0.008      336.352        7.596      862.833
01/22/2014  19:48:00      -60.079      106.772      -19.128       26.040       25.598       16.892      678.103      655.253      285.340        0.850        0.081      122.515       11.816        0.009      336.522        7.881      862.830
01/22/2014  19:49:00      -70.340      119.206      -21.875       33.417       27.430       20.879     1116.679      752.382      435.928        1.097        0.115      138.412       19.187        0.019      336.572        7.966      862.828
01/22/2014  19:50:00      -97.248       82.567      -20.136       26.212       43.716       19.083      687.056     1911.089      364.153        0.982        0.148      127.571       22.960        0.032      336.507        7.855      862.820
01/22/2014  19:51:00     -102.241       78.137      -24.605       26.607       31.114       18.301      707.940      968.065      334.925        0.959        0.101      128.681       18.303        0.020      336.502        7.846      862.807
01/22/2014  19:52:00      -74.503       30.465       -5.169       20.298       23.970       17.697      412.019      574.576      313.191        0.390        0.065       80.491       15.094        0.035      336.166        7.284      862.790
01/22/2014  19:53:00      -79.145       48.102      -15.403       17.760       32.823       14.073      315.420     1077.324      198.054        0.520        0.080       92.616       14.994        0.026      336.302        7.513      862.773
01/22/2014  19:54:00      -69.625       37.162      -11.075       17.160       31.168       19.543      294.468      971.432      381.931        0.400        0.082       78.922       12.609        0.026      336.147        7.255      862.764
01/22/2014  19:55:00      -73.283       56.513      -11.424       25.417       28.175       17.345      646.033      793.808      300.863        0.522        0.087       92.543       17.334        0.035      336.350        7.593      862.770
01/22/2014  19:56:00      -69.688       41.090      -12.098       21.672       33.217       14.672      469.692     1103.365      215.274        0.424        0.089       80.900       11.997        0.022      336.115        7.201      862.774
01/22/2014  19:57:00      -83.039       61.148      -16.040       25.552       36.390       15.769      652.893     1324.264      248.668        0.656        0.111      103.124       11.768        0.013      336.459        7.775      862.756
01/22/2014  19:58:00     -101.437       57.159      -16.595       27.039       44.521       19.118      731.096     1982.156      365.489        0.845        0.154      116.433       17.252        0.022      336.253        7.432      862.738
01/22/2014  19:59:00     -105.331       11.769      -14.926       23.105       33.069       14.907      533.825     1093.548      222.212        0.665        0.092      105.986       11.067        0.011      335.866        6.785      862.725
01/22/2014  20:00:00     -117.331       12.202      -22.047       26.883       42.559       26.371      722.695     1811.230      695.432        0.881        0.161      117.964       18.736        0.025      336.018        7.039      862.717
01/22/2014  20:01:00     -120.276       48.349      -16.636       38.168       36.049       20.319     1456.787     1299.561      412.861        1.012        0.158      129.630       13.627        0.011      336.157        7.271      862.705
01/22/2014  20:02:00     -118.462       20.489      -13.540       44.008       51.445       31.216     1936.701     2646.563      974.460        1.010        0.278      120.221       28.295        0.055      336.048        7.089      862.702
01/22/2014  20:03:00     -109.187        1.952      -13.948       28.915       38.164       22.230      836.071     1456.518      494.187        0.745        0.139      109.204       15.710        0.021      335.744        6.582      862.709
01/22/2014  20:04:00     -112.883       29.941      -20.480       34.866       67.441       29.130     1215.649     4548.341      848.579        1.033        0.331      116.787       19.303        0.027      335.800        6.676      862.715
01/22/2014  20:05:00      -94.534       28.450      -13.284       43.552       31.870       22.040     1896.745     1015.705      485.776        0.666        0.170       98.722       23.935        0.059      335.753        6.597      862.719
01/22/2014  20:06:00     -144.600       99.949      -24.957       41.247       61.614       36.976     1701.274     3796.267     1367.234        1.919        0.343      175.781       31.149        0.031      335.978        6.971      862.736
01/22/2014  20:07:00     -132.350      120.197      -34.692       40.582       78.408       33.071     1646.887     6147.846     1093.684        2.103        0.444      178.784       29.024        0.026      335.958        6.936      862.748
01/22/2014  20:08:00     -103.408       63.992      -22.173       47.310       65.021       30.315     2238.270     4227.763      918.976        1.133        0.369      121.606       27.579        0.051      335.951        6.926      862.754
01/22/2014  20:09:00     -112.622      129.760      -21.725       56.866       62.288       40.590     3233.757     3879.827     1647.572        1.938        0.438      171.818       41.152        0.057      336.161        7.275      862.767
01/22/2014  20:10:00     -121.100       80.260      -19.769       53.250       64.625       33.490     2835.561     4176.420     1121.574        1.481        0.407      145.282       36.998        0.065      335.943        6.912      862.769
01/22/2014  20:11:00      -98.133       31.732      -14.918       49.360       47.013       27.684     2436.403     2210.245      766.409        0.814        0.271      103.136       26.955        0.068      336.046        7.086      862.770
01/22/2014  20:12:00      -81.051       32.003      -11.586       37.291       57.568       33.302     1390.641     3314.129     1108.998        0.677        0.291       87.140       27.789        0.102      335.688        6.489      862.766
01/22/2014  20:13:00      -78.721       32.363      -16.058       39.102       50.767       23.102     1528.997     2577.248      533.683        0.607        0.232       85.114       22.245        0.068      335.834        6.732      862.746
01/22/2014  20:14:00      -64.635       13.113       -3.392       27.032       25.929       18.160      730.707      672.301      329.772        0.305        0.087       65.951       12.559        0.036      335.711        6.527      862.740
01/22/2014  20:15:00      -78.814       27.687      -13.271       29.922       48.440       19.804      895.317     2346.417      392.190        0.539        0.182       83.536        8.752        0.011      335.694        6.497      862.731
01/22/2014  20:16:00      -93.498       93.670      -13.055       33.633       41.294       31.102     1131.191     1705.167      967.348        1.074        0.190      132.348       16.575        0.016      336.069        7.124      862.732
01/22/2014  20:17:00      -88.474      100.760      -14.171       31.225       80.640       24.064      975.030     6502.786      579.075        1.312        0.403      134.090       31.020        0.054      336.164        7.281      862.745
01/22/2014  20:18:00      -82.938       39.910      -10.784       30.947       27.098       19.016      957.744      734.284      361.612        0.532        0.103       92.041       13.208        0.021      335.976        6.968      862.755
01/22/2014  20:19:00      -69.260       96.934      -18.980       33.945       55.493       27.208     1152.234     3079.492      740.262        0.976        0.249      119.135       27.716        0.054      336.008        7.023      862.764
01/22/2014  20:20:00      -68.882      115.405      -19.337       37.621       64.548       21.271     1415.309     4166.406      452.461        1.223        0.302      134.399       23.575        0.031      336.030        7.058      862.778
01/22/2014  20:21:00      -39.093      103.951      -16.589       26.762       31.871       16.617      716.199     1015.786      276.134        0.731        0.100      111.059       11.745        0.011      336.180        7.309      862.781
01/22/2014  20:22:00      -48.107       40.124      -10.902       22.385       22.308       14.914      501.089      497.653      222.417        0.263        0.061       62.644        8.380        0.018      336.000        7.007      862.780
01/22/2014  20:23:00      -32.984       31.213       -7.069       19.482       23.825       19.494      379.561      567.627      380.009        0.172        0.066       45.411        9.849        0.047      336.145        7.249      862.788
01/22/2014  20:24:00      -41.844       52.770      -12.281       31.826       45.083       15.012     1012.868     2032.488      225.347        0.398        0.164       67.347       12.733        0.036      336.019        7.040      862.786
01/22/2014  20:25:00      -45.461       81.508      -17.465       31.885       39.233       15.925     1016.656     1539.258      253.594        0.591        0.140       93.329       14.760        0.025      336.169        7.289      862.788
01/22/2014  20:26:00      -63.215       61.475      -10.542       31.473       31.758       19.504      990.545     1008.572      380.422        0.513        0.119       88.178       18.026        0.042      335.996        7.003      862.811
01/22/2014  20:27:00      -74.649       49.646      -10.553       29.057       26.863       21.224      844.333      721.645      450.444        0.508        0.101       89.650       18.033        0.040      336.080        7.141      862.810
01/22/2014  20:28:00      -65.005       28.650      -14.411       15.585       27.920       13.542      242.878      779.549      183.375        0.323        0.060       71.038       11.245        0.025      336.039        7.073      862.820
01/22/2014  20:29:00      -55.124        9.390       -0.441       38.351       36.596       19.751     1470.834     1339.279      390.109        0.316        0.160       55.918       14.004        0.063      335.852        6.763      862.825
01/22/2014  20:30:00      -86.372       61.949      -21.992       31.120       28.348       19.046      968.448      803.585      362.760        0.696        0.107      106.291       16.849        0.025      336.086        7.151      862.832
01/22/2014  20:31:00      -56.868       26.156        0.948       33.984       17.840       18.741     1154.880      318.280      351.213        0.287        0.091       62.595       14.419        0.053      335.915        6.865      862.828
01/22/2014  20:32:00      -69.021       -3.052       -4.821       26.408       20.385       16.255      697.408      415.543      264.218        0.309        0.069       69.088       13.126        0.036      335.878        6.806      862.828
01/22/2014  20:33:00      -51.629       56.499       -7.685       30.869       30.200       17.223      952.868      912.023      296.621        0.404        0.108       76.535       12.948        0.029      336.111        7.194      862.835
01/22/2014  20:34:00      -50.074       13.455       -5.625       16.948       18.607       13.463      287.223      346.224      181.242        0.177        0.041       51.850       12.347        0.057      335.852        6.762      862.841
01/22/2014  20:35:00      -55.416      -11.356       -5.630       22.310       15.789        9.031      497.747      249.299       81.562        0.203        0.041       56.568        8.800        0.024      335.837        6.736      862.848
01/22/2014  20:36:00      -57.174      -12.206       -6.194       11.158       11.626       10.734      124.491      135.163      115.213        0.192        0.019       58.462        7.706        0.017      335.771        6.627      862.854
01/22/2014  20:37:00      -92.081        3.022      -11.277       29.502       43.515       16.150      870.352     1893.562      260.826        0.582        0.151       92.131       16.986        0.034      335.831        6.727      862.860
01/22/2014  20:38:00     -109.409       73.655      -28.295       34.614       49.294       21.897     1198.098     2429.910      479.476        1.115        0.205      131.891       20.441        0.024      336.193        7.330      862.882
01/22/2014  20:39:00     -107.605       86.976      -22.815       36.570       41.530       28.288     1337.364     1724.764      800.211        1.176        0.193      138.360       20.528        0.022      336.140        7.239      862.918
01/22/2014  20:40:00      -91.725       77.741      -10.363       36.863       60.273       34.506     1358.858     3632.784     1190.654        1.037        0.309      120.237       24.928        0.043      336.015        7.032      862.949
01/22/2014  20:41:00      -83.574       52.523      -13.317       37.040       35.052       23.991     1371.934     1228.677      575.566        0.655        0.159       98.708       14.419        0.021      335.906        6.850      862.970
01/22/2014  20:42:00     -110.962       95.654      -30.826       30.748       53.354       19.914      945.417     2846.630      396.560        1.330        0.209      146.500       21.135        0.021      336.114        7.198      862.976
01/22/2014  20:43:00     -110.114       95.524      -26.018       33.275       63.548       23.407     1107.201     4038.343      547.875        1.381        0.285      145.773       31.205        0.046      336.031        7.058      862.978
01/22/2014  20:44:00      -75.473       53.240      -16.608       43.146       39.508       22.024     1861.559     1560.917      485.056        0.636        0.195       92.362       24.995        0.073      335.906        6.852      862.985
01/22/2014  20:45:00      -60.619       63.721      -10.736       25.584       33.365       19.756      654.564     1113.202      390.310        0.500        0.108       87.949       16.217        0.034      336.021        7.043      863.000
01/22/2014  20:46:00        5.898       22.793        7.474       30.578       15.155       15.841      934.990      229.675      250.929        0.101        0.071       23.544       18.416        0.612      335.924        6.881      863.007
01/22/2014  20:47:00      -21.993       44.058       -5.933       23.591       28.823       18.016      556.550      830.761      324.583        0.209        0.086       49.242       16.956        0.119      335.930        6.890      863.010
01/22/2014  20:48:00      -49.690       45.244      -11.231       35.620       28.092       14.640     1268.785      789.187      214.325        0.346        0.114       67.202       16.619        0.061      336.051        7.092      863.011
01/22/2014  20:49:00      -55.152       65.756      -15.531       29.685       31.773       15.940      881.186     1009.523      254.091        0.488        0.107       85.823       15.341        0.032      335.997        7.004      863.011
01/22/2014  20:50:00      -82.107       13.753      -14.405       24.437       19.021       12.218      597.169      361.782      149.283        0.412        0.055       83.250       11.765        0.020      335.992        6.995      863.019
01/22/2014  20:51:00      -83.841       11.026      -16.098       25.874       27.052       18.015      669.443      731.785      324.538        0.457        0.086       84.563       14.148        0.028      335.892        6.828      863.019
01/22/2014  20:52:00      -74.496       -5.612      -20.959       28.154       33.945       16.261      792.624     1152.247      264.405        0.411        0.110       74.707       18.899        0.064      335.968        6.955      863.015
01/22/2014  20:53:00      -41.501       -4.066        0.573       25.764       21.661       14.903      663.762      469.200      222.098        0.155        0.068       41.699       13.680        0.108      335.844        6.748      863.014
01/22/2014  20:54:00      -15.357       19.298        2.588       44.469       27.668       20.273     1977.498      765.527      411.009        0.188        0.158       24.663        9.183        0.139      335.909        6.855      863.035
01/22/2014  20:55:00      -50.473       64.909      -12.448       45.109       42.049       21.278     2034.795     1768.107      452.749        0.558        0.213       82.223       14.890        0.033      336.038        7.070      863.050
01/22/2014  20:56:00      -63.407       69.271      -25.404       50.538       33.033       19.012     2554.140     1091.198      361.443        0.673        0.200       93.909       17.093        0.033      336.081        7.144      863.059
01/22/2014  20:57:00      -72.285      102.235      -16.650       33.729       40.074       22.907     1137.679     1605.944      524.727        0.961        0.163      125.208       17.247        0.019      336.076        7.135      863.056
01/22/2014  20:58:00      -26.039        1.063        3.494       21.825       24.570       13.410      476.329      603.687      179.819        0.098        0.063       26.061        5.592        0.046      336.055        7.100      863.054
01/22/2014  20:59:00      -53.023       27.648       -9.025       21.014       39.474       11.696      441.600     1558.196      136.805        0.290        0.107       59.798       15.070        0.064      335.916        6.867      863.044
01/22/2014  21:00:00      -20.155       54.389       -6.169       28.717       35.392       13.557      824.684     1252.596      183.788        0.283        0.113       58.003       12.240        0.045      335.918        6.873      863.055
01/22/2014  21:01:00      -34.520       71.442      -16.426       42.081       49.379       19.482     1770.801     2438.333      379.530        0.558        0.229       79.344       16.065        0.041      335.993        6.995      863.071
01/22/2014  21:02:00      -71.338       63.387      -18.003       27.135       42.467       21.834      736.334     1803.485      476.740        0.622        0.151       95.431       27.115        0.081      336.051        7.095      863.088
01/22/2014  21:03:00      -27.105      122.802      -17.355       35.496       41.894       17.056     1259.949     1755.135      290.918        0.971        0.165      125.758        9.813        0.006      336.202        7.347      863.101
01/22/2014  21:04:00       11.228      138.422      -22.550       29.421       46.446       19.028      865.586     2157.213      362.074        1.159        0.169      138.877       15.614        0.013      335.930        6.891      863.118
01/22/2014  21:05:00       23.319      114.104      -23.776       24.200       33.569       16.574      585.623     1126.862      274.703        0.806        0.099      116.463       18.507        0.025      335.810        6.691      863.116
01/22/2014  21:06:00       18.810      109.781      -24.668       15.526       29.751        9.959      241.071      885.145       99.174        0.712        0.061      111.381       10.676        0.009      335.756        6.603      863.114
01/22/2014  21:07:00       -9.083      134.065      -20.969       17.345       24.153        9.512      300.858      583.348       90.481        0.974        0.049      134.373       11.006        0.007      335.761        6.611      863.114
01/22/2014  21:08:00      -14.639      137.994      -17.934       16.905       20.425       10.813      285.783      417.195      116.915        1.020        0.041      138.769        9.678        0.005      335.747        6.586      863.137
01/22/2014  21:09:00       -2.304      147.644      -20.385       10.412       17.292        7.240      108.419      298.997       52.422        1.134        0.023      147.662        6.470        0.002      335.926        6.886      863.158
01/22/2014  21:10:00       18.517      152.685      -25.267       19.862       27.613       13.935      394.497      762.482      194.183        1.282        0.068      153.804        8.703        0.003      335.927        6.887      863.177
01/22/2014  21:11:00       46.564       70.333       -3.529       44.108       48.735       36.606     1945.535     2375.138     1340.007        0.639        0.283       84.350       32.844        0.152      335.672        6.462      863.183
01/22/2014  21:12:00       91.896       72.610        3.760       47.869       28.296       26.822     2291.405      800.667      719.418        0.877        0.191      117.120       16.460        0.020      335.649        6.423      863.172
01/22/2014  21:13:00       32.968       28.118       26.769       31.108       27.798       25.713      967.698      772.728      661.158        0.250        0.120       43.330       22.470        0.269      335.527        6.218      863.158
01/22/2014  21:14:00       62.472       28.177       18.111       36.198       25.958       31.106     1310.268      673.824      967.558        0.399        0.148       68.533       21.332        0.097      335.284        5.816      863.148
01/22/2014  21:15:00       53.887       22.790       17.980       32.820       29.502       28.921     1077.170      870.350      836.418        0.326        0.139       58.508       26.086        0.199      335.296        5.833      863.140
01/22/2014  21:16:00       58.273       14.101       40.856       49.053       34.700       32.918     2406.163     1204.074     1083.627        0.498        0.235       59.955       23.132        0.149      335.366        5.950      863.157
01/22/2014  21:17:00       43.635       27.042       48.959       36.951       22.664       33.589     1365.379      513.661     1128.252        0.402        0.150       51.335       10.590        0.043      335.299        5.839      863.171
01/22/2014  21:18:00       21.977       42.677       54.960       36.055       27.538       29.257     1299.997      758.348      855.963        0.412        0.146       48.003       22.093        0.212      335.179        5.641      863.184
01/22/2014  21:19:00       29.207       14.041       35.584       33.475       31.715       24.227     1120.562     1005.832      586.930        0.251        0.136       32.407       25.978        0.643      335.115        5.534      863.194
01/22/2014  21:20:00       35.077       17.412       28.763       29.901       24.829       23.015      894.071      616.466      529.697        0.220        0.102       39.161       16.925        0.187      335.154        5.600      863.197
01/22/2014  21:21:00       52.166       22.900       20.669       29.344       21.110       23.145      861.048      445.644      535.708        0.276        0.092       56.971       21.975        0.149      335.260        5.773      863.196
01/22/2014  21:22:00       43.788       43.843       33.662       32.936       21.617       24.252     1084.770      467.282      588.176        0.356        0.107       61.964       16.494        0.071      335.386        5.985      863.190
01/22/2014  21:23:00       60.977       61.175       -0.079       23.849       23.064       24.848      568.769      531.961      617.410        0.459        0.086       86.375       18.250        0.045      335.578        6.304      863.175
01/22/2014  21:24:00       43.939       53.826       -2.556       40.330       19.913       15.903     1626.526      396.511      252.900        0.355        0.114       69.483       17.614        0.064      335.595        6.333      863.145
01/22/2014  21:25:00      -11.449      127.286      -25.048       21.352       33.150       16.362      455.918     1098.928      267.707        0.939        0.091      127.800       13.333        0.011      335.647        6.420      863.124
01/22/2014  21:26:00      -26.277      122.929      -16.974       31.013       33.874       23.468      961.832     1147.461      550.756        0.937        0.133      125.706       15.525        0.015      335.775        6.634      863.114
01/22/2014  21:27:00        1.632      126.716      -21.739       17.339       30.514       16.319      300.630      931.077      266.324        0.901        0.075      126.727       16.541        0.017      335.669        6.458      863.115
01/22/2014  21:28:00      -44.874      103.425      -18.274       40.637       28.645       18.609     1651.395      820.551      346.283        0.793        0.141      112.741       19.044        0.029      335.629        6.390      863.101
01/22/2014  21:29:00      -78.182      141.853      -26.460       32.769       42.941       24.930     1073.780     1843.896      621.527        1.524        0.177      161.971       21.981        0.018      335.702        6.511      863.090
01/22/2014  21:30:00      -96.789       91.580      -22.694       28.475       36.981       21.110      810.821     1367.628      445.649        1.045        0.131      133.248       18.876        0.020      335.531        6.227      863.087
01/22/2014  21:31:00      -90.160       78.893      -21.708       27.377       38.763       21.413      749.508     1502.541      458.510        0.877        0.136      119.804       22.510        0.035      335.511        6.193      863.108
01/22/2014  21:32:00      -55.351      116.018      -18.207       27.106       31.192       21.834      734.711      972.950      476.727        0.952        0.109      128.546       18.605        0.021      335.608        6.356      863.127
01/22/2014  21:33:00      -41.871      114.867      -13.070       35.836       35.759       21.225     1284.228     1278.726      450.513        0.907        0.151      122.261       20.905        0.029      335.605        6.351      863.137
01/22/2014  21:34:00      -29.273      112.004      -12.210       27.592       31.794       18.309      761.327     1010.832      335.233        0.783        0.105      115.767        9.855        0.007      335.758        6.605      863.140
01/22/2014  21:35:00       -9.242      117.888      -14.274       30.865       42.398       20.488      952.648     1797.631      419.746        0.868        0.159      118.250       21.401        0.033      335.680        6.474      863.149
01/22/2014  21:36:00      -33.157       47.830       -4.730       27.053       32.293       16.019      731.844     1042.867      256.624        0.272        0.102       58.199       13.082        0.051      335.637        6.402      863.150
01/22/2014  21:37:00      -44.864       14.835       -7.323       22.249       20.380       14.695      495.022      415.348      215.954        0.171        0.056       47.253        8.720        0.034      335.549        6.257      863.144
01/22/2014  21:38:00      -69.130       10.863       -9.902       19.862       20.769       15.380      394.490      431.369      236.542        0.303        0.053       69.978        9.916        0.020      335.621        6.377      863.135
01/22/2014  21:39:00      -68.674       76.084      -21.218       19.300       21.026       17.097      372.472      442.111      292.314        0.603        0.055      102.493       15.664        0.023      335.782        6.646      863.137
01/22/2014  21:40:00      -64.271       20.904       -6.145       22.944       18.426       16.820      526.443      339.506      282.925        0.288        0.057       67.585       11.115        0.027      335.696        6.502      863.147
01/22/2014  21:41:00      -62.993       20.972       -5.470       20.801       18.480       11.518      432.674      341.525      132.657        0.267        0.045       66.393        7.164        0.012      335.632        6.396      863.150
01/22/2014  21:42:00      -57.591       53.685      -15.715       17.434       25.630       14.025      303.960      656.917      196.688        0.380        0.058       78.732       12.606        0.026      335.743        6.580      863.158
01/22/2014  21:43:00      -64.344       19.213      -10.180       18.843       13.282       14.564      355.071      176.399      212.103        0.268        0.037       67.151        7.525        0.013      335.525        6.216      863.165
01/22/2014  21:44:00      -51.900       -0.643       -6.961       15.434       18.984        9.140      238.220      360.402       83.544        0.171        0.034       51.904        6.379        0.015      335.403        6.013      863.174
01/22/2014  21:45:00      -47.431       -3.685       -6.049       17.255       13.215       12.412      297.722      174.629      154.066        0.146        0.031       47.574       10.241        0.046      335.426        6.051      863.175
01/22/2014  21:46:00      -32.713       -3.616       -1.789       11.110        8.655        8.978      123.435       74.910       80.597        0.068        0.014       32.912        5.875        0.032      335.347        5.918      863.179
01/22/2014  21:47:00      -23.708       -9.008       -2.648       14.281       10.356       10.717      203.957      107.237      114.846        0.054        0.021       25.362        8.168        0.104      335.366        5.951      863.202
01/22/2014  21:48:00      -24.068       16.524       -7.404       16.074       14.524       10.981      258.381      210.932      120.592        0.075        0.029       29.194        9.504        0.106      335.550        6.258      863.219
01/22/2014  21:49:00      -45.925       24.620       -4.097       18.905       26.173       14.766      357.385      685.034      218.046        0.200        0.063       52.108       12.428        0.057      335.558        6.271      863.233
01/22/2014  21:50:00      -50.323       55.678      -14.828       23.314       32.933       14.965      543.566     1084.571      223.939        0.385        0.093       75.050        5.867        0.006      335.510        6.193      863.241
01/22/2014  21:51:00      -18.968       53.175       -4.898       31.347       21.613       14.432      982.631      467.104      208.269        0.243        0.083       56.456       11.441        0.041      335.664        6.449      863.248
01/22/2014  21:52:00      -27.639       18.800       -1.526       20.247       36.171       16.446      409.934     1308.308      270.470        0.155        0.099       33.427        4.599        0.019      335.497        6.169      863.248
01/22/2014  21:53:00      -45.993       -0.986       -8.387       11.462       20.432       10.413      131.389      417.470      108.422        0.142        0.033       46.003        6.371        0.019      335.197        5.670      863.254
01/22/2014  21:54:00      -57.597       -3.444      -10.981       15.025       11.891        8.718      225.763      141.406       75.998        0.195        0.022       57.700        9.523        0.027      335.010        5.361      863.254
01/22/2014  21:55:00      -76.919        4.648      -12.776       13.530        9.237        9.319      183.066       85.321       86.840        0.323        0.018       77.060        6.854        0.008      334.907        5.190      863.257
01/22/2014  21:56:00      -73.035        4.504      -15.012       15.224       14.312       12.954      231.780      204.843      167.809        0.309        0.030       73.174        5.787        0.006      334.802        5.015      863.273
01/22/2014  21:57:00      -76.417        9.784      -19.411       16.170       17.739       11.504      261.462      314.672      132.346        0.351        0.035       77.041        8.502        0.012      334.813        5.034      863.289
01/22/2014  21:58:00      -69.673       15.737      -24.622       22.004       22.950       19.268      484.195      526.704      371.273        0.354        0.069       71.428       16.712        0.055      334.873        5.132      863.295
01/22/2014  21:59:00      -69.576        5.783      -17.506       21.473       20.539       16.193      461.106      421.868      262.221        0.316        0.057       69.816       10.651        0.023      334.793        5.000      863.293
01/22/2014  22:00:00      -72.341      -25.056      -20.780       14.796       20.648       11.754      218.922      426.352      138.149        0.354        0.039       76.557       12.453        0.026      334.450        4.430      863.287
01/22/2014  22:01:00      -84.592      -22.679      -21.677       12.957       15.397       13.158      167.887      237.058      173.128        0.436        0.029       87.580        4.982        0.003      334.411        4.366      863.269
01/22/2014  22:02:00      -86.090      -23.634      -23.050       16.959       20.148       14.335      287.592      405.944      205.497        0.470        0.045       89.275        5.718        0.004      334.341        4.251      863.242
01/22/2014  22:03:00     -102.030      -15.519      -19.984       19.570       22.970       16.238      383.001      527.626      263.657        0.611        0.059      103.204        5.937        0.003      334.198        4.013      863.228
01/22/2014  22:04:00      -80.581      -14.432      -14.318       15.685       22.911       16.100      246.026      524.926      259.205        0.397        0.052       81.863       10.255        0.016      334.161        3.950      863.219
01/22/2014  22:05:00      -85.483      -18.867      -14.401       27.989       28.287       18.614      783.400      800.148      346.479        0.490        0.097       87.541       11.957        0.019      334.149        3.931      863.205
01/22/2014  22:06:00      -47.838      -12.609      -16.210       26.725       28.226       18.518      714.246      796.687      342.915        0.228        0.093       49.471       14.157        0.082      334.131        3.899      863.188
01/22/2014  22:07:00      -62.575      -11.617      -14.493       37.434       22.487       19.663     1401.313      505.649      386.616        0.328        0.115       63.644       15.158        0.057      334.169        3.965      863.181
01/22/2014  22:08:00      -83.753      -16.898      -15.783       34.093       22.425       17.562     1162.318      502.871      308.431        0.476        0.099       85.441       14.172        0.028      334.178        3.978      863.166
01/22/2014  22:09:00      -45.736      -12.902       -8.899       33.915       17.393       19.405     1150.242      302.523      376.553        0.208        0.091       47.521       18.893        0.158      334.187        3.995      863.185
01/22/2014  22:10:00      -71.049      -10.414      -17.486       29.746       20.562       22.610      884.808      422.784      511.230        0.364        0.091       71.808        6.115        0.007      334.213        4.037      863.214
01/22/2014  22:11:00      -64.456      -24.820      -19.069       23.954       22.045       17.515      573.796      485.971      306.786        0.325        0.068       69.069       12.272        0.032      334.200        4.016      863.215
01/22/2014  22:12:00      -54.168      -19.890       -4.994       20.430       26.170       16.193      417.399      684.891      262.229        0.236        0.068       57.704        8.968        0.024      334.150        3.934      863.239
01/22/2014  22:13:00      -63.635      -18.671      -20.094       23.933       18.892       14.013      572.809      356.896      196.361        0.296        0.056       66.317        9.057        0.019      334.091        3.836      863.264
01/22/2014  22:14:00      -41.834      -11.094       -6.615       23.235       17.144       16.301      539.878      293.932      265.718        0.151        0.055       43.280        8.531        0.039      334.147        3.928      863.278
01/22/2014  22:15:00      -67.614      -26.022       -0.107       32.807       32.315       19.728     1076.270     1044.272      389.182        0.388        0.125       72.449       16.120        0.050      334.296        4.175      863.267
01/22/2014  22:16:00      -33.774      -16.408       -6.747       28.818       10.109       16.364      830.469      102.197      267.788        0.133        0.060       37.549        8.737        0.054      334.318        4.212      863.269
01/22/2014  22:17:00      -71.441      -23.878      -11.070       18.873       14.483       14.783      356.195      209.768      218.533        0.329        0.039       75.326        6.311        0.007      334.165        3.957      863.261
01/22/2014  22:18:00      -58.968      -30.011      -14.542       14.820       15.680       13.541      219.644      245.852      183.360        0.262        0.032       66.166        5.008        0.006      334.133        3.905      863.261
01/22/2014  22:19:00      -87.791      -45.054      -18.033       17.430       26.033       15.091      303.815      677.741      227.748        0.564        0.060       98.677        9.431        0.009      334.129        3.898      863.245
01/22/2014  22:20:00      -69.994      -17.021       -6.941       21.936       17.571       11.969      481.186      308.724      143.264        0.308        0.047       72.034        8.603        0.014      333.861        3.455      863.235
01/22/2014  22:21:00      -49.956      -37.025      -10.165       16.652       13.971       11.800      277.299      195.181      139.232        0.229        0.031       62.181        8.046        0.017      333.987        3.663      863.248
01/22/2014  22:22:00      -29.698      -35.500      -10.005       30.450       20.562       16.250      927.186      422.790      264.070        0.193        0.081       46.284       15.748        0.116      333.979        3.651      863.241
01/22/2014  22:23:00     -109.435      -37.431      -20.094       24.970       15.279       12.688      623.501      233.449      160.990        0.740        0.051      115.660       11.001        0.009      333.884        3.492      863.221
01/22/2014  22:24:00     -100.645      -41.319      -11.540       22.921       19.119       15.759      525.365      365.548      248.345        0.655        0.057      108.797       11.212        0.011      333.839        3.417      863.216
01/22/2014  22:25:00      -78.356      -48.040      -23.851       18.000       16.498       13.054      324.011      272.200      170.409        0.489        0.038       91.910       10.926        0.014      333.923        3.556      863.219
01/22/2014  22:26:00     -102.121      -36.437      -19.886       13.991       16.963       10.517      195.760      287.758      110.603        0.637        0.030      108.426        9.138        0.007      333.830        3.401      863.221
01/22/2014  22:27:00     -100.566      -26.419      -14.766       15.983       17.411       10.401      255.472      303.155      108.182        0.585        0.033      103.979        7.911        0.006      333.861        3.455      863.256
01/22/2014  22:28:00      -99.678      -45.434      -10.726       20.566       17.156       15.257      422.943      294.321      232.784        0.653        0.048      109.545       11.791        0.012      333.825        3.393      863.281
01/22/2014  22:29:00     -105.642      -20.588      -19.283       13.663       15.411       10.508      186.670      237.503      110.418        0.625        0.027      107.630        8.777        0.007      333.872        3.472      863.281
01/22/2014  22:30:00     -106.560      -15.730      -21.239       17.607       15.691       12.368      309.999      246.222      152.968        0.638        0.035      107.715       10.538        0.010      333.881        3.487      863.275
01/22/2014  22:31:00      -88.181      -23.813      -13.968       17.687       23.137       13.116      312.841      535.325      172.041        0.478        0.051       91.339       12.973        0.020      333.772        3.305      863.265
01/22/2014  22:32:00      -60.600       -2.016      -11.764       18.530       21.462       17.169      343.363      460.599      294.763        0.246        0.055       60.633       15.525        0.066      333.863        3.457      863.274
01/22/2014  22:33:00      -65.965        4.296      -13.036       18.782       17.418       14.525      352.751      303.394      210.986        0.270        0.043       66.105       12.987        0.039      334.014        3.708      863.306
01/22/2014  22:34:00      -76.734       -0.714      -13.967       18.937       16.750       11.920      358.617      280.547      142.081        0.343        0.039       76.737        8.962        0.014      333.987        3.663      863.338
01/22/2014  22:35:00      -65.763      -11.560      -13.240       19.540       13.704       12.646      381.821      187.786      159.917        0.268        0.036       66.772       10.244        0.024      333.853        3.440      863.347
01/22/2014  22:36:00      -53.854      -30.237       -7.309       11.711       15.625       14.442      137.159      244.132      208.580        0.223        0.029       61.762        8.034        0.017      333.843        3.424      863.361
01/22/2014  22:37:00      -41.077      -19.263       -7.296       20.200       14.351       10.263      408.038      205.963      105.321        0.142        0.036       45.370        8.520        0.035      333.918        3.549      863.338
01/22/2014  22:38:00      -67.344      -24.312      -16.232       30.637       21.142       11.641      938.603      447.003      135.516        0.346        0.076       71.598        6.812        0.009      333.631        3.071      863.294
01/22/2014  22:39:00      -93.255      -12.905       -7.994       35.285       20.069       19.009     1245.005      402.762      361.325        0.547        0.100       94.144       16.914        0.032      333.487        2.833      863.261
01/22/2014  22:40:00      -92.899      -13.696      -16.158       21.380       21.093       17.680      457.108      444.905      312.571        0.515        0.061       93.903       10.730        0.013      333.463        2.791      863.240
01/22/2014  22:41:00      -98.316       -2.010      -21.838       23.085       21.855       19.336      532.929      477.642      373.868        0.577        0.069       98.337       13.431        0.019      333.582        2.989      863.226
01/22/2014  22:42:00      -78.470        8.263      -15.842       22.999       18.244       14.436      528.951      332.846      208.391        0.377        0.054       78.904       12.023        0.023      333.657        3.116      863.238
01/22/2014  22:43:00      -83.496      -10.844      -18.629       15.591       16.756        9.178      243.076      280.774       84.244        0.402        0.030       84.198        7.017        0.007      333.655        3.110      863.254
01/22/2014  22:44:00     -106.466      -27.591      -15.222       18.619       23.058       15.794      346.664      531.690      249.442        0.673        0.056      109.983       11.836        0.012      333.724        3.227      863.256
01/22/2014  22:45:00     -114.441      -20.247      -14.617       25.337       25.192       15.993      641.952      634.621      255.781        0.763        0.077      116.218       13.436        0.013      333.750        3.270      863.257
01/22/2014  22:46:00     -101.195      -10.655      -12.899       38.065       43.455       18.553     1448.915     1888.311      344.208        0.710        0.184      101.754       14.170        0.019      333.736        3.246      863.247
01/22/2014  22:47:00      -98.310        1.014      -14.769       40.900       19.297       15.781     1672.791      372.386      249.048        0.609        0.115       98.316       18.681        0.036      333.786        3.329      863.240
01/22/2014  22:48:00      -84.549        5.896      -16.881       34.456       18.205       14.200     1187.188      331.434      201.636        0.459        0.086       84.754       11.995        0.020      333.931        3.570      863.254
01/22/2014  22:49:00      -80.473       -0.432      -12.132       27.480       14.664       13.781      755.175      215.022      189.907        0.389        0.058       80.474        9.751        0.015      333.840        3.418      863.270
01/22/2014  22:50:00      -68.985      -28.026      -18.837       29.822       18.898       10.987      889.342      357.139      120.714        0.363        0.068       74.460        6.920        0.009      334.020        3.717      863.268
01/22/2014  22:51:00      -91.205      -15.718      -14.023       17.989       19.664       11.466      323.607      386.657      131.477        0.480        0.042       92.549        9.292        0.010      333.917        3.547      863.259
01/22/2014  22:52:00      -75.108      -36.732       -9.589       23.161       23.574       15.811      536.419      555.752      249.996        0.421        0.067       83.609       14.364        0.030      333.839        3.416      863.251
01/22/2014  22:53:00      -81.754      -38.962      -17.965       22.774       25.239       15.963      518.646      637.015      254.816        0.497        0.071       90.564       12.978        0.021      333.746        3.264      863.248
01/22/2014  22:54:00      -68.255      -34.907       -8.812       32.282       26.675       18.282     1042.104      711.577      334.232        0.402        0.104       76.663       18.141        0.056      333.595        3.012      863.265
01/22/2014  22:55:00      -48.795      -23.289       -8.510       22.293       17.575       18.320      496.975      308.885      335.627        0.207        0.057       54.067       11.533        0.046      333.562        2.959      863.317
01/22/2014  22:56:00       -2.533      -40.964       -5.362       31.262       18.652       14.691      977.320      347.889      215.826        0.163        0.077       41.042        7.342        0.032      333.671        3.139      863.349
01/22/2014  22:57:00      -53.541      -29.249        5.224       37.927       22.599       19.379     1438.481      510.733      375.547        0.304        0.116       61.009       18.328        0.090      333.586        2.997      863.353
01/22/2014  22:58:00      -74.102      -40.958       -9.599       16.643       13.815        9.971      276.983      190.847       99.419        0.391        0.028       84.668        5.725        0.005      333.629        3.068      863.355
01/22/2014  22:59:00      -73.562      -45.288        3.459       28.871       17.973       15.400      833.519      323.036      237.162        0.443        0.070       86.385       15.216        0.031      333.558        2.952      863.327
01/22/2014  23:00:00      -93.233      -65.164       -0.802       27.380       23.870       18.983      749.686      569.785      360.339        0.731        0.084      113.749        9.891        0.008      333.598        3.018      863.304
01/22/2014  23:01:00      -74.610      -37.340       -3.315       28.178       19.165       17.018      794.025      367.299      289.624        0.421        0.073       83.433       15.956        0.037      333.546        2.931      863.312
01/22/2014  23:02:00      -95.932      -49.315      -10.704       11.421       13.965        9.222      130.450      195.021       85.042        0.608        0.021      107.865        6.579        0.004      333.521        2.889      863.335
01/22/2014  23:03:00      -99.329      -52.325      -10.095       11.603       10.753        7.172      134.622      115.638       51.442        0.650        0.015      112.269        4.940        0.002      333.637        3.082      863.357
01/22/2014  23:04:00      -74.602      -36.769      -12.032       10.817       13.167        6.583      117.003      173.369       43.336        0.370        0.017       83.171        7.284        0.008      333.522        2.890      863.359
01/22/2014  23:05:00      -85.584      -22.953      -14.901       11.004        7.800        6.450      121.098       60.833       41.600        0.415        0.011       88.609        3.377        0.001      333.474        2.812      863.351
01/22/2014  23:06:00      -70.445      -37.144      -14.424       24.710       10.315        8.015      610.595      106.392       64.235        0.367        0.039       79.638        4.337        0.003      333.378        2.653      863.352
01/22/2014  23:07:00      -96.082      -28.498      -13.638       10.962        9.469        7.121      120.172       89.656       50.709        0.525        0.013      100.219        5.286        0.003      333.427        2.734      863.353
01/22/2014  23:08:00     -109.866      -23.993      -16.639       14.937       18.349       14.278      223.100      336.688      203.875        0.684        0.038      112.455        8.778        0.006      333.401        2.692      863.348
01/22/2014  23:09:00     -108.567       -9.542      -18.670        8.598        7.524        7.267       73.919       56.615       52.806        0.620        0.009      108.985        2.372        0.000      333.318        2.554      863.334
01/22/2014  23:10:00     -115.031      -12.035      -19.748       14.903       11.762        6.526      222.113      138.354       42.592        0.708        0.020      115.659        2.415        0.000      333.361        2.624      863.312
01/22/2014  23:11:00      -59.858      -37.469      -12.643       21.003       25.431       16.571      441.107      646.758      274.590        0.325        0.068       70.618       11.682        0.027      333.269        2.472      863.296
01/22/2014  23:12:00      -95.913      -45.946      -11.537       39.331       30.963       24.246     1546.926      958.719      587.864        0.727        0.155      106.350       27.020        0.065      333.299        2.523      863.271
01/22/2014  23:13:00     -105.796      -22.071      -19.515       25.910       18.770       16.835      671.343      352.312      283.407        0.668        0.065      108.074       15.279        0.020      333.219        2.390      863.269
01/22/2014  23:14:00      -98.445      -10.014      -14.061       22.128       20.140       11.147      489.637      405.640      124.249        0.550        0.051       98.953       10.837        0.012      333.203        2.362      863.291
01/22/2014  23:15:00      -77.959      -14.265      -14.776       26.305       22.308       11.318      691.965      497.643      128.108        0.391        0.066       79.254       11.346        0.020      333.425        2.733      863.342
01/22/2014  23:16:00      -87.142       -5.511      -14.914       15.712       15.483       13.173      246.856      239.738      173.529        0.425        0.033       87.316        9.249        0.011      333.314        2.547      863.368
01/22/2014  23:17:00      -93.784       -1.100      -17.098       21.983       16.449       12.309      483.258      270.555      151.503        0.500        0.045       93.790        8.918        0.009      333.283        2.495      863.361
01/22/2014  23:18:00     -103.007        8.847      -22.380       15.933       15.014       10.703      253.862      225.433      114.562        0.589        0.030      103.386        6.834        0.004      333.236        2.419      863.331
01/22/2014  23:19:00      -79.023       -3.199      -22.118       14.080       13.503       11.851      198.260      182.339      140.452        0.363        0.026       79.088        6.179        0.006      333.060        2.128      863.310
01/22/2014  23:20:00      -76.015        2.108      -18.467       22.355       20.955       14.519      499.753      439.125      210.798        0.364        0.057       76.045       13.122        0.030      333.202        2.362      863.293
01/22/2014  23:21:00      -87.417       -9.258      -23.293       20.773       20.743       13.886      431.506      430.284      192.810        0.466        0.053       87.905       13.885        0.025      333.377        2.651      863.291
01/22/2014  23:22:00      -49.472      -12.926      -11.368       28.009       23.171       17.006      784.476      536.905      289.221        0.218        0.081       51.132       14.842        0.084      333.365        2.631      863.309
01/22/2014  23:23:00      -36.484       47.376       -7.548       37.047       50.068       25.978     1372.477     2506.793      674.832        0.409        0.228       59.796       27.844        0.217      334.231        4.068      863.346
01/22/2014  23:24:00      -31.946      103.239      -11.261       45.452       32.915       21.770     2065.873     1083.391      473.930        0.771        0.181      108.069       16.059        0.022      334.566        4.624      863.350
01/22/2014  23:25:00      -44.418      115.330      -17.354       24.887       30.645       14.210      619.374      939.103      201.918        0.867        0.088      123.588       11.169        0.008      334.621        4.714      863.338
01/22/2014  23:26:00      -49.563       78.155       -7.979       38.393       34.069       23.570     1473.995     1160.678      555.530        0.591        0.160       92.546       19.110        0.043      334.308        4.194      863.325
01/22/2014  23:27:00      -16.364       36.658        1.728       26.543       45.181       16.767      704.539     2041.355      281.138        0.232        0.151       40.144       22.130        0.304      334.282        4.152      863.321
01/22/2014  23:28:00        6.962        9.305       -3.657       14.769       36.944       11.435      218.119     1364.835      130.758        0.093        0.086       11.622       14.037        1.459      334.138        3.914      863.329
01/22/2014  23:29:00        8.514      -47.323       -7.079       23.917       21.851       16.446      572.018      477.447      270.487        0.184        0.066       48.082       11.303        0.055      333.821        3.387      863.348
01/22/2014  23:30:00      -64.023      -31.815      -12.998       12.817       10.831        8.757      164.273      117.313       76.682        0.282        0.018       71.492        5.690        0.006      333.407        2.701      863.328
01/22/2014  23:31:00      -71.795      -31.131      -21.898       21.098       16.047        9.966      445.132      257.510       99.327        0.370        0.040       78.253        9.257        0.014      333.237        2.420      863.311
01/22/2014  23:32:00      -31.460      -14.471       -0.341       19.296       15.343       10.027      372.335      235.395      100.542        0.095        0.035       34.629        7.352        0.045      333.262        2.461      863.308
01/22/2014  23:33:00      -41.551       -1.219        4.317       19.526       13.733        9.361      381.277      188.589       87.621        0.120        0.033       41.568        4.000        0.009      333.604        3.027      863.287
01/22/2014  23:34:00      -23.911      -13.982       -5.584        9.768       11.999        9.418       95.420      143.976       88.696        0.056        0.016       27.699        8.111        0.086      333.267        2.470      863.255
01/22/2014  23:35:00       32.413       22.925        2.491       33.658       38.714       23.259     1132.857     1498.767      540.965        0.238        0.159       39.700       22.072        0.309      333.946        3.594      863.241
01/22/2014  23:36:00       41.331       92.044       -6.944       34.345       54.671       22.462     1179.555     2988.889      504.535        0.745        0.234      100.898       18.518        0.034      334.214        4.039      863.251
01/22/2014  23:37:00       -1.242       42.061       55.020       19.008       29.099       28.512      361.286      846.733      812.948        0.341        0.101       42.079       19.443        0.214      333.411        2.707      863.296
01/22/2014  23:38:00       16.096       -2.613       14.115       17.289       16.800       13.060      298.897      282.240      170.576        0.061        0.038       16.307       12.423        0.580      333.658        3.116      863.308
01/22/2014  23:39:00       39.766      -63.093      -13.175       29.231       42.615       20.184      854.461     1815.999      407.412        0.441        0.154       74.580       28.744        0.149      333.739        3.251      863.303
01/22/2014  23:40:00       19.363      -39.041        1.485       14.713       24.298        9.814      216.478      590.399       96.323        0.140        0.045       43.579       12.952        0.088      333.942        3.588      863.281
01/22/2014  23:41:00      -59.670      -10.782       -4.057       32.979        8.924       11.860     1087.642       79.640      140.665        0.250        0.065       60.636       16.514        0.074      333.412        2.709      863.255
01/22/2014  23:42:00      -80.767      -30.078      -15.810        8.127       16.998        7.698       66.046      288.940       59.265        0.405        0.021       86.186        5.924        0.005      333.143        2.265      863.238
01/22/2014  23:43:00      -61.060      -52.836        0.885       35.440       17.914       17.402     1256.017      320.912      302.840        0.420        0.094       80.746       14.610        0.033      333.104        2.201      863.241
01/22/2014  23:44:00      -98.329      -45.511      -12.859       25.247       20.963       14.032      637.425      439.458      196.907        0.659        0.064      108.350       10.608        0.010      333.271        2.476      863.249
01/22/2014  23:45:00      -90.793      -29.847       -9.906       19.950       20.164       11.849      397.995      406.569      140.392        0.509        0.047       95.573        9.912        0.011      333.231        2.411      863.277
01/22/2014  23:46:00      -43.037      -89.920      -12.289       43.907       36.253       23.995     1927.866     1314.288      575.745        0.695        0.191       99.688       10.534        0.011      333.545        2.930      863.325
01/22/2014  23:47:00      -61.629      -78.184        5.047       54.136       52.025       38.679     2930.741     2706.632     1496.058        0.853        0.357       99.554       31.713        0.101      333.289        2.508      863.356
01/22/2014  23:48:00     -127.771     -102.813       -0.652       76.400       65.447       39.120     5836.919     4283.338     1530.361        1.927        0.583      164.000       43.514        0.070      332.840        1.763      863.329
01/22/2014  23:49:00     -145.967     -127.883       -2.465       70.394       51.036       45.583     4955.291     2604.648     2077.827        2.365        0.482      194.063       39.128        0.041      332.566        1.309      863.309
01/22/2014  23:50:00     -100.270      -87.453       15.938      102.515       53.202       43.536    10509.242     2830.474     1895.400        1.659        0.762      133.049       58.344        0.192      332.472        1.155      863.311
01/22/2014  23:51:00     -188.218     -124.426      -13.084      101.210       77.209       45.432    10243.434     5961.214     2064.072        3.467        0.913      225.628       45.791        0.041      332.324        0.911      863.305
01/22/2014  23:52:00     -166.703     -113.425        2.029       94.321       61.644       39.793     8896.527     3800.021     1583.461        2.747        0.714      201.631       38.129        0.036      332.101        0.541      863.318
01/22/2014  23:53:00     -123.410      -55.528        6.967       62.299       51.106       32.850     3881.139     2611.872     1079.109        1.297        0.379      135.327       30.591        0.051      332.191        0.693      863.336
01/22/2014  23:54:00      -40.026      -58.254        5.230       46.121       32.834       28.160     2127.177     1078.085      792.974        0.451        0.200       70.679       24.294        0.118      332.310        0.889      863.356
01/22/2014  23:55:00     -136.690      -53.020       -9.804       34.576       40.171       21.463     1195.476     1613.688      460.677        1.243        0.163      146.613       14.066        0.009      332.383        1.010      863.362
01/22/2014  23:56:00     -138.434      -62.461       -1.600       35.559       37.201       17.618     1264.415     1383.881      310.381        1.301        0.148      151.873       11.985        0.006      332.405        1.047      863.354
01/22/2014  23:57:00     -176.741      -42.076      -21.185       31.426       31.036       20.964      987.563      963.242      439.504        1.792        0.120      181.681       17.897        0.010      332.466        1.146      863.328
01/22/2014  23:58:00     -151.162      -58.676      -16.324       30.890       23.571       16.691      954.213      555.608      278.602        1.417        0.089      162.150       13.663        0.007      332.473        1.158      863.307
01/22/2014  23:59:00     -138.374      -33.173       -7.700       29.695       23.047       16.533      881.778      531.158      273.333        1.100        0.084      142.295       15.585        0.012      332.463        1.142      863.301
